PWSweather.com
Personal Weather Stations
Station Observations
KD5LEN
Ktxnorth1, North Richland Hills, TX 76180

Ktxnorth1North Richland Hills, TX 76180

Lat: 32.885294, Lon: -97.236048

Elevation: 694

Station Type: Vantage Pro 2

http://www.atzer0.net/VWS/root/index.htm

High Low Average
Temperature 37.9°F3.3°C 21.0°F-6.1°C 29.3°F-1.5°C
Dew Point 17.7°F-7.9°C 6.5°F-14.2°C 11.5°F-11.4°C
Winds 21.0 mph 33.8 kmh Calm Calm 6.0 mph WSW9.7 kmh WSW
Wind Gusts 25.0 mph40.2 kmh -- 13.0 mph20.9 kmh
Humidity 61% 31% 48%
Pressure 30.64 in1037.6 mb 30.35 in1027.8 mb -
Precipitation 0.00 in0.0 mm - -
Hour Temp Dew Point Humidity Winds Wind Gusts Pressure Precip Precip Rate Daily Precip Total
12:00 AM 28.5°F-1.9°C 15.2°F-9.3°C 57% 5.0 mph N8.0 kmh N 19.0 mph30.6 kmh 30.54 in1034.2 mb 0.00 in0.0 mm 0.00 in0.0 mm 0.00 in0.0 mm
12:02 AM 28.5°F-1.9°C 15.2°F-9.3°C 57% 12.0 mph NNW19.3 kmh NNW 19.0 mph30.6 kmh 30.54 in1034.2 mb 0.00 in0.0 mm 0.00 in0.0 mm 0.00 in0.0 mm
12:04 AM 28.5°F-1.9°C 15.2°F-9.3°C 57% 16.0 mph NNW25.7 kmh NNW 16.0 mph25.7 kmh 30.54 in1034.2 mb 0.00 in0.0 mm 0.00 in0.0 mm 0.00 in0.0 mm
12:06 AM 28.4°F-2.0°C 15.1°F-9.4°C 57% 8.0 mph NNW12.9 kmh NNW 16.0 mph25.7 kmh 30.54 in1034.2 mb 0.00 in0.0 mm 0.00 in0.0 mm 0.00 in0.0 mm
12:08 AM 28.4°F-2.0°C 15.1°F-9.4°C 57% 12.0 mph NW19.3 kmh NW 20.0 mph32.2 kmh 30.54 in1034.2 mb 0.00 in0.0 mm 0.00 in0.0 mm 0.00 in0.0 mm
12:10 AM 28.3°F-2.1°C 15.0°F-9.4°C 57% 5.0 mph NNW8.0 kmh NNW 20.0 mph32.2 kmh 30.53 in1033.9 mb 0.00 in0.0 mm 0.00 in0.0 mm 0.00 in0.0 mm
12:12 AM 28.2°F-2.1°C 14.9°F-9.5°C 57% 12.0 mph NNW19.3 kmh NNW 20.0 mph32.2 kmh 30.53 in1033.9 mb 0.00 in0.0 mm 0.00 in0.0 mm 0.00 in0.0 mm
12:14 AM 28.2°F-2.1°C 14.9°F-9.5°C 57% 12.0 mph N19.3 kmh N 20.0 mph32.2 kmh 30.53 in1033.9 mb 0.00 in0.0 mm 0.00 in0.0 mm 0.00 in0.0 mm
12:16 AM 28.1°F-2.2°C 14.8°F-9.6°C 57% 6.0 mph NNE9.7 kmh NNE 20.0 mph32.2 kmh 30.53 in1033.9 mb 0.00 in0.0 mm 0.00 in0.0 mm 0.00 in0.0 mm
12:18 AM 28.1°F-2.2°C 14.8°F-9.6°C 57% 6.0 mph NE9.7 kmh NE 20.0 mph32.2 kmh 30.53 in1033.9 mb 0.00 in0.0 mm 0.00 in0.0 mm 0.00 in0.0 mm
12:20 AM 28.1°F-2.2°C 14.4°F-9.8°C 56% 15.0 mph NNE24.1 kmh NNE 20.0 mph32.2 kmh 30.53 in1033.9 mb 0.00 in0.0 mm 0.00 in0.0 mm 0.00 in0.0 mm
12:22 AM 28.0°F-2.2°C 14.8°F-9.6°C 57% 8.0 mph NNE12.9 kmh NNE 20.0 mph32.2 kmh 30.53 in1033.9 mb 0.00 in0.0 mm 0.00 in0.0 mm 0.00 in0.0 mm
12:24 AM 28.0°F-2.2°C 14.3°F-9.8°C 56% 6.0 mph N9.7 kmh N 24.0 mph38.6 kmh 30.53 in1033.9 mb 0.00 in0.0 mm 0.00 in0.0 mm 0.00 in0.0 mm
12:26 AM 27.9°F-2.3°C 14.7°F-9.6°C 57% 8.0 mph NNE12.9 kmh NNE 24.0 mph38.6 kmh 30.53 in1033.9 mb 0.00 in0.0 mm 0.00 in0.0 mm 0.00 in0.0 mm
12:28 AM 27.9°F-2.3°C 14.3°F-9.8°C 56% 5.0 mph NE8.0 kmh NE 24.0 mph38.6 kmh 30.53 in1033.9 mb 0.00 in0.0 mm 0.00 in0.0 mm 0.00 in0.0 mm
12:30 AM 27.9°F-2.3°C 14.3°F-9.8°C 56% 7.0 mph NE11.3 kmh NE 24.0 mph38.6 kmh 30.54 in1034.2 mb 0.00 in0.0 mm 0.00 in0.0 mm 0.00 in0.0 mm
12:32 AM 27.9°F-2.3°C 14.3°F-9.8°C 56% 8.0 mph N12.9 kmh N 24.0 mph38.6 kmh 30.54 in1034.2 mb 0.00 in0.0 mm 0.00 in0.0 mm 0.00 in0.0 mm
12:34 AM 27.9°F-2.3°C 14.7°F-9.6°C 57% 13.0 mph NNE20.9 kmh NNE 18.0 mph29.0 kmh 30.53 in1033.9 mb 0.00 in0.0 mm 0.00 in0.0 mm 0.00 in0.0 mm
12:36 AM 27.9°F-2.3°C 14.7°F-9.6°C 57% 10.0 mph N16.1 kmh N 18.0 mph29.0 kmh 30.53 in1033.9 mb 0.00 in0.0 mm 0.00 in0.0 mm 0.00 in0.0 mm
12:38 AM 27.9°F-2.3°C 14.7°F-9.6°C 57% 13.0 mph NNW20.9 kmh NNW 18.0 mph29.0 kmh 30.53 in1033.9 mb 0.00 in0.0 mm 0.00 in0.0 mm 0.00 in0.0 mm
12:40 AM 27.9°F-2.3°C 14.7°F-9.6°C 57% 9.0 mph NW14.5 kmh NW 18.0 mph29.0 kmh 30.54 in1034.2 mb 0.00 in0.0 mm 0.00 in0.0 mm 0.00 in0.0 mm
12:42 AM 27.9°F-2.3°C 14.7°F-9.6°C 57% 10.0 mph NW16.1 kmh NW 18.0 mph29.0 kmh 30.53 in1033.9 mb 0.00 in0.0 mm 0.00 in0.0 mm 0.00 in0.0 mm
12:44 AM 27.8°F-2.3°C 14.6°F-9.7°C 57% 6.0 mph NNW9.7 kmh NNW 18.0 mph29.0 kmh 30.54 in1034.2 mb 0.00 in0.0 mm 0.00 in0.0 mm 0.00 in0.0 mm
12:46 AM 27.7°F-2.4°C 14.5°F-9.7°C 57% 12.0 mph NNE19.3 kmh NNE 18.0 mph29.0 kmh 30.54 in1034.2 mb 0.00 in0.0 mm 0.00 in0.0 mm 0.00 in0.0 mm
12:48 AM 27.8°F-2.3°C 14.6°F-9.7°C 57% 11.0 mph N17.7 kmh N 18.0 mph29.0 kmh 30.54 in1034.2 mb 0.00 in0.0 mm 0.00 in0.0 mm 0.00 in0.0 mm
12:50 AM 27.7°F-2.4°C 14.5°F-9.7°C 57% 12.0 mph NNW19.3 kmh NNW 22.0 mph35.4 kmh 30.54 in1034.2 mb 0.00 in0.0 mm 0.00 in0.0 mm 0.00 in0.0 mm
12:52 AM 27.7°F-2.4°C 14.5°F-9.7°C 57% 12.0 mph NW19.3 kmh NW 22.0 mph35.4 kmh 30.54 in1034.2 mb 0.00 in0.0 mm 0.00 in0.0 mm 0.00 in0.0 mm
12:54 AM 27.7°F-2.4°C 14.9°F-9.5°C 58% 9.0 mph N14.5 kmh N 22.0 mph35.4 kmh 30.54 in1034.2 mb 0.00 in0.0 mm 0.00 in0.0 mm 0.00 in0.0 mm
12:56 AM 27.7°F-2.4°C 14.9°F-9.5°C 58% 8.0 mph N12.9 kmh N 22.0 mph35.4 kmh 30.54 in1034.2 mb 0.00 in0.0 mm 0.00 in0.0 mm 0.00 in0.0 mm
12:58 AM 27.6°F-2.4°C 14.8°F-9.6°C 58% 18.0 mph NW29.0 kmh NW 22.0 mph35.4 kmh 30.54 in1034.2 mb 0.00 in0.0 mm 0.00 in0.0 mm 0.00 in0.0 mm
01:00 AM 27.6°F-2.4°C 14.8°F-9.6°C 58% 10.0 mph NE16.1 kmh NE 22.0 mph35.4 kmh 30.54 in1034.2 mb 0.00 in0.0 mm 0.00 in0.0 mm 0.00 in0.0 mm
01:02 AM 27.6°F-2.4°C 14.8°F-9.6°C 58% 4.0 mph NNW6.4 kmh NNW 22.0 mph35.4 kmh 30.54 in1034.2 mb 0.00 in0.0 mm 0.00 in0.0 mm 0.00 in0.0 mm
01:04 AM 27.5°F-2.5°C 14.7°F-9.6°C 58% 4.0 mph NNW6.4 kmh NNW 14.0 mph22.5 kmh 30.54 in1034.2 mb 0.00 in0.0 mm 0.00 in0.0 mm 0.00 in0.0 mm
01:06 AM 27.4°F-2.6°C 14.6°F-9.7°C 58% 3.0 mph N4.8 kmh N 15.0 mph24.1 kmh 30.54 in1034.2 mb 0.00 in0.0 mm 0.00 in0.0 mm 0.00 in0.0 mm
01:08 AM 27.4°F-2.6°C 14.6°F-9.7°C 58% 6.0 mph NW9.7 kmh NW 17.0 mph27.4 kmh 30.54 in1034.2 mb 0.00 in0.0 mm 0.00 in0.0 mm 0.00 in0.0 mm
01:10 AM 27.4°F-2.6°C 14.6°F-9.7°C 58% 8.0 mph NNW12.9 kmh NNW 17.0 mph27.4 kmh 30.54 in1034.2 mb 0.00 in0.0 mm 0.00 in0.0 mm 0.00 in0.0 mm
01:12 AM 27.3°F-2.6°C 14.5°F-9.7°C 58% 17.0 mph NNE27.4 kmh NNE 17.0 mph27.4 kmh 30.54 in1034.2 mb 0.00 in0.0 mm 0.00 in0.0 mm 0.00 in0.0 mm
01:14 AM 27.3°F-2.6°C 14.5°F-9.7°C 58% 12.0 mph N19.3 kmh N 17.0 mph27.4 kmh 30.54 in1034.2 mb 0.00 in0.0 mm 0.00 in0.0 mm 0.00 in0.0 mm
01:16 AM 27.3°F-2.6°C 14.5°F-9.7°C 58% 7.0 mph NE11.3 kmh NE 17.0 mph27.4 kmh 30.54 in1034.2 mb 0.00 in0.0 mm 0.00 in0.0 mm 0.00 in0.0 mm
01:18 AM 27.2°F-2.7°C 14.4°F-9.8°C 58% 10.0 mph NNW16.1 kmh NNW 18.0 mph29.0 kmh 30.54 in1034.2 mb 0.00 in0.0 mm 0.00 in0.0 mm 0.00 in0.0 mm
01:20 AM 27.1°F-2.7°C 14.7°F-9.6°C 59% 6.0 mph NW9.7 kmh NW 18.0 mph29.0 kmh 30.54 in1034.2 mb 0.00 in0.0 mm 0.00 in0.0 mm 0.00 in0.0 mm
01:22 AM 27.1°F-2.7°C 14.7°F-9.6°C 59% 9.0 mph ENE14.5 kmh ENE 18.0 mph29.0 kmh 30.54 in1034.2 mb 0.00 in0.0 mm 0.00 in0.0 mm 0.00 in0.0 mm
01:24 AM 27.1°F-2.7°C 14.3°F-9.8°C 58% 2.0 mph NW3.2 kmh NW 21.0 mph33.8 kmh 30.54 in1034.2 mb 0.00 in0.0 mm 0.00 in0.0 mm 0.00 in0.0 mm
01:26 AM 27.0°F-2.8°C 14.2°F-9.9°C 58% 4.0 mph NW6.4 kmh NW 21.0 mph33.8 kmh 30.54 in1034.2 mb 0.00 in0.0 mm 0.00 in0.0 mm 0.00 in0.0 mm
01:28 AM 27.0°F-2.8°C 14.2°F-9.9°C 58% 15.0 mph NE24.1 kmh NE 21.0 mph33.8 kmh 30.54 in1034.2 mb 0.00 in0.0 mm 0.00 in0.0 mm 0.00 in0.0 mm
01:30 AM 27.0°F-2.8°C 14.2°F-9.9°C 58% 7.0 mph NE11.3 kmh NE 21.0 mph33.8 kmh 30.54 in1034.2 mb 0.00 in0.0 mm 0.00 in0.0 mm 0.00 in0.0 mm
01:32 AM 27.0°F-2.8°C 14.2°F-9.9°C 58% 8.0 mph N12.9 kmh N 21.0 mph33.8 kmh 30.55 in1034.5 mb 0.00 in0.0 mm 0.00 in0.0 mm 0.00 in0.0 mm
01:34 AM 26.9°F-2.8°C 14.1°F-9.9°C 58% 15.0 mph N24.1 kmh N 15.0 mph24.1 kmh 30.55 in1034.5 mb 0.00 in0.0 mm 0.00 in0.0 mm 0.00 in0.0 mm
01:36 AM 26.9°F-2.8°C 13.7°F-10.2°C 57% 4.0 mph NNE6.4 kmh NNE 21.0 mph33.8 kmh 30.54 in1034.2 mb 0.00 in0.0 mm 0.00 in0.0 mm 0.00 in0.0 mm
01:38 AM 26.8°F-2.9°C 14.0°F-10.0°C 58% 9.0 mph ENE14.5 kmh ENE 21.0 mph33.8 kmh 30.54 in1034.2 mb 0.00 in0.0 mm 0.00 in0.0 mm 0.00 in0.0 mm
01:40 AM 26.8°F-2.9°C 14.0°F-10.0°C 58% 5.0 mph NE8.0 kmh NE 21.0 mph33.8 kmh 30.54 in1034.2 mb 0.00 in0.0 mm 0.00 in0.0 mm 0.00 in0.0 mm
01:42 AM 26.8°F-2.9°C 14.0°F-10.0°C 58% 14.0 mph NW22.5 kmh NW 21.0 mph33.8 kmh 30.55 in1034.5 mb 0.00 in0.0 mm 0.00 in0.0 mm 0.00 in0.0 mm
01:44 AM 26.7°F-2.9°C 13.9°F-10.1°C 58% 7.0 mph N11.3 kmh N 21.0 mph33.8 kmh 30.55 in1034.5 mb 0.00 in0.0 mm 0.00 in0.0 mm 0.00 in0.0 mm
01:46 AM 26.8°F-2.9°C 14.0°F-10.0°C 58% 3.0 mph NW4.8 kmh NW 21.0 mph33.8 kmh 30.55 in1034.5 mb 0.00 in0.0 mm 0.00 in0.0 mm 0.00 in0.0 mm
01:48 AM 26.7°F-2.9°C 13.9°F-10.1°C 58% 8.0 mph N12.9 kmh N 21.0 mph33.8 kmh 30.55 in1034.5 mb 0.00 in0.0 mm 0.00 in0.0 mm 0.00 in0.0 mm
01:50 AM 26.6°F-3.0°C 13.8°F-10.1°C 58% 13.0 mph NE20.9 kmh NE 21.0 mph33.8 kmh 30.55 in1034.5 mb 0.00 in0.0 mm 0.00 in0.0 mm 0.00 in0.0 mm
01:52 AM 26.5°F-3.1°C 13.7°F-10.2°C 58% 11.0 mph N17.7 kmh N 21.0 mph33.8 kmh 30.55 in1034.5 mb 0.00 in0.0 mm 0.00 in0.0 mm 0.00 in0.0 mm
01:54 AM 26.6°F-3.0°C 13.8°F-10.1°C 58% 15.0 mph N24.1 kmh N 21.0 mph33.8 kmh 30.55 in1034.5 mb 0.00 in0.0 mm 0.00 in0.0 mm 0.00 in0.0 mm
01:56 AM 26.5°F-3.1°C 13.7°F-10.2°C 58% 13.0 mph NE20.9 kmh NE 21.0 mph33.8 kmh 30.54 in1034.2 mb 0.00 in0.0 mm 0.00 in0.0 mm 0.00 in0.0 mm
01:58 AM 26.5°F-3.1°C 13.7°F-10.2°C 58% 16.0 mph NNW25.7 kmh NNW 21.0 mph33.8 kmh 30.54 in1034.2 mb 0.00 in0.0 mm 0.00 in0.0 mm 0.00 in0.0 mm
02:00 AM 26.5°F-3.1°C 13.7°F-10.2°C 58% 15.0 mph NNW24.1 kmh NNW 21.0 mph33.8 kmh 30.54 in1034.2 mb 0.00 in0.0 mm 0.00 in0.0 mm 0.00 in0.0 mm
02:02 AM 26.4°F-3.1°C 13.6°F-10.2°C 58% 13.0 mph NNW20.9 kmh NNW 13.0 mph20.9 kmh 30.55 in1034.5 mb 0.00 in0.0 mm 0.00 in0.0 mm 0.00 in0.0 mm
02:04 AM 26.4°F-3.1°C 13.6°F-10.2°C 58% 15.0 mph WNW24.1 kmh WNW 23.0 mph37.0 kmh 30.55 in1034.5 mb 0.00 in0.0 mm 0.00 in0.0 mm 0.00 in0.0 mm
02:06 AM 26.3°F-3.2°C 13.6°F-10.2°C 58% 21.0 mph NNW33.8 kmh NNW 23.0 mph37.0 kmh 30.55 in1034.5 mb 0.00 in0.0 mm 0.00 in0.0 mm 0.00 in0.0 mm
02:08 AM 26.2°F-3.2°C 13.1°F-10.5°C 57% 13.0 mph NW20.9 kmh NW 25.0 mph40.2 kmh 30.55 in1034.5 mb 0.00 in0.0 mm 0.00 in0.0 mm 0.00 in0.0 mm
02:10 AM 26.2°F-3.2°C 13.1°F-10.5°C 57% 9.0 mph NE14.5 kmh NE 25.0 mph40.2 kmh 30.55 in1034.5 mb 0.00 in0.0 mm 0.00 in0.0 mm 0.00 in0.0 mm
02:12 AM 26.2°F-3.2°C 13.1°F-10.5°C 57% 15.0 mph N24.1 kmh N 25.0 mph40.2 kmh 30.54 in1034.2 mb 0.00 in0.0 mm 0.00 in0.0 mm 0.00 in0.0 mm
02:14 AM 26.1°F-3.3°C 13.0°F-10.6°C 57% 2.0 mph NNW3.2 kmh NNW 25.0 mph40.2 kmh 30.55 in1034.5 mb 0.00 in0.0 mm 0.00 in0.0 mm 0.00 in0.0 mm
02:16 AM 26.1°F-3.3°C 13.4°F-10.3°C 58% 3.0 mph N4.8 kmh N 25.0 mph40.2 kmh 30.55 in1034.5 mb 0.00 in0.0 mm 0.00 in0.0 mm 0.00 in0.0 mm
02:18 AM 26.1°F-3.3°C 13.4°F-10.3°C 58% 12.0 mph NNW19.3 kmh NNW 25.0 mph40.2 kmh 30.55 in1034.5 mb 0.00 in0.0 mm 0.00 in0.0 mm 0.00 in0.0 mm
02:20 AM 26.0°F-3.3°C 13.3°F-10.4°C 58% 10.0 mph NE16.1 kmh NE 25.0 mph40.2 kmh 30.55 in1034.5 mb 0.00 in0.0 mm 0.00 in0.0 mm 0.00 in0.0 mm
02:22 AM 25.9°F-3.4°C 13.2°F-10.4°C 58% 15.0 mph NNE24.1 kmh NNE 25.0 mph40.2 kmh 30.55 in1034.5 mb 0.00 in0.0 mm 0.00 in0.0 mm 0.00 in0.0 mm
02:24 AM 25.8°F-3.4°C 13.1°F-10.5°C 58% 4.0 mph N6.4 kmh N 25.0 mph40.2 kmh 30.56 in1034.9 mb 0.00 in0.0 mm 0.00 in0.0 mm 0.00 in0.0 mm
02:26 AM 25.8°F-3.4°C 13.1°F-10.5°C 58% 9.0 mph NW14.5 kmh NW 25.0 mph40.2 kmh 30.55 in1034.5 mb 0.00 in0.0 mm 0.00 in0.0 mm 0.00 in0.0 mm
02:28 AM 25.7°F-3.5°C 13.0°F-10.6°C 58% 19.0 mph N30.6 kmh N 25.0 mph40.2 kmh 30.55 in1034.5 mb 0.00 in0.0 mm 0.00 in0.0 mm 0.00 in0.0 mm
02:30 AM 25.6°F-3.6°C 12.5°F-10.8°C 57% 5.0 mph NE8.0 kmh NE 25.0 mph40.2 kmh 30.55 in1034.5 mb 0.00 in0.0 mm 0.00 in0.0 mm 0.00 in0.0 mm
02:32 AM 25.6°F-3.6°C 12.9°F-10.6°C 58% 12.0 mph N19.3 kmh N 25.0 mph40.2 kmh 30.56 in1034.9 mb 0.00 in0.0 mm 0.00 in0.0 mm 0.00 in0.0 mm
02:34 AM 25.5°F-3.6°C 12.8°F-10.7°C 58% 17.0 mph N27.4 kmh N 17.0 mph27.4 kmh 30.55 in1034.5 mb 0.00 in0.0 mm 0.00 in0.0 mm 0.00 in0.0 mm
02:36 AM 25.5°F-3.6°C 12.8°F-10.7°C 58% 16.0 mph NW25.7 kmh NW 17.0 mph27.4 kmh 30.56 in1034.9 mb 0.00 in0.0 mm 0.00 in0.0 mm 0.00 in0.0 mm
02:38 AM 25.4°F-3.7°C 12.3°F-10.9°C 57% 6.0 mph NNW9.7 kmh NNW 22.0 mph35.4 kmh 30.56 in1034.9 mb 0.00 in0.0 mm 0.00 in0.0 mm 0.00 in0.0 mm
02:40 AM 25.3°F-3.7°C 12.2°F-11.0°C 57% 12.0 mph N19.3 kmh N 22.0 mph35.4 kmh 30.56 in1034.9 mb 0.00 in0.0 mm 0.00 in0.0 mm 0.00 in0.0 mm
02:42 AM 25.3°F-3.7°C 12.2°F-11.0°C 57% 11.0 mph NNW17.7 kmh NNW 23.0 mph37.0 kmh 30.56 in1034.9 mb 0.00 in0.0 mm 0.00 in0.0 mm 0.00 in0.0 mm
02:44 AM 25.2°F-3.8°C 12.1°F-11.1°C 57% 6.0 mph NE9.7 kmh NE 23.0 mph37.0 kmh 30.56 in1034.9 mb 0.00 in0.0 mm 0.00 in0.0 mm 0.00 in0.0 mm
02:46 AM 25.2°F-3.8°C 12.5°F-10.8°C 58% 15.0 mph N24.1 kmh N 23.0 mph37.0 kmh 30.56 in1034.9 mb 0.00 in0.0 mm 0.00 in0.0 mm 0.00 in0.0 mm
02:48 AM 25.1°F-3.8°C 12.0°F-11.1°C 57% 8.0 mph NNE12.9 kmh NNE 23.0 mph37.0 kmh 30.56 in1034.9 mb 0.00 in0.0 mm 0.00 in0.0 mm 0.00 in0.0 mm
02:50 AM 25.1°F-3.8°C 12.0°F-11.1°C 57% 16.0 mph N25.7 kmh N 23.0 mph37.0 kmh 30.56 in1034.9 mb 0.00 in0.0 mm 0.00 in0.0 mm 0.00 in0.0 mm
02:52 AM 25.0°F-3.9°C 12.3°F-10.9°C 58% 7.0 mph N11.3 kmh N 23.0 mph37.0 kmh 30.56 in1034.9 mb 0.00 in0.0 mm 0.00 in0.0 mm 0.00 in0.0 mm
02:54 AM 24.9°F-3.9°C 11.8°F-11.2°C 57% 10.0 mph N16.1 kmh N 23.0 mph37.0 kmh 30.56 in1034.9 mb 0.00 in0.0 mm 0.00 in0.0 mm 0.00 in0.0 mm
02:56 AM 24.9°F-3.9°C 12.2°F-11.0°C 58% 8.0 mph N12.9 kmh N 23.0 mph37.0 kmh 30.56 in1034.9 mb 0.00 in0.0 mm 0.00 in0.0 mm 0.00 in0.0 mm
02:58 AM 24.9°F-3.9°C 12.2°F-11.0°C 58% 5.0 mph NNW8.0 kmh NNW 23.0 mph37.0 kmh 30.56 in1034.9 mb 0.00 in0.0 mm 0.00 in0.0 mm 0.00 in0.0 mm
03:00 AM 24.8°F-4.0°C 12.1°F-11.1°C 58% 1.0 mph N1.6 kmh N 23.0 mph37.0 kmh 30.56 in1034.9 mb 0.00 in0.0 mm 0.00 in0.0 mm 0.00 in0.0 mm
03:02 AM 24.8°F-4.0°C 12.1°F-11.1°C 58% 13.0 mph NNE20.9 kmh NNE 13.0 mph20.9 kmh 30.56 in1034.9 mb 0.00 in0.0 mm 0.00 in0.0 mm 0.00 in0.0 mm
03:04 AM 24.8°F-4.0°C 12.1°F-11.1°C 58% 5.0 mph NNW8.0 kmh NNW 18.0 mph29.0 kmh 30.56 in1034.9 mb 0.00 in0.0 mm 0.00 in0.0 mm 0.00 in0.0 mm
03:06 AM 24.7°F-4.1°C 12.0°F-11.1°C 58% 15.0 mph N24.1 kmh N 18.0 mph29.0 kmh 30.56 in1034.9 mb 0.00 in0.0 mm 0.00 in0.0 mm 0.00 in0.0 mm
03:08 AM 24.6°F-4.1°C 12.0°F-11.1°C 58% 12.0 mph N19.3 kmh N 18.0 mph29.0 kmh 30.56 in1034.9 mb 0.00 in0.0 mm 0.00 in0.0 mm 0.00 in0.0 mm
03:10 AM 24.6°F-4.1°C 12.3°F-10.9°C 59% 9.0 mph N14.5 kmh N 20.0 mph32.2 kmh 30.56 in1034.9 mb 0.00 in0.0 mm 0.00 in0.0 mm 0.00 in0.0 mm
03:12 AM 24.5°F-4.2°C 11.9°F-11.2°C 58% 13.0 mph NW20.9 kmh NW 20.0 mph32.2 kmh 30.56 in1034.9 mb 0.00 in0.0 mm 0.00 in0.0 mm 0.00 in0.0 mm
03:14 AM 24.5°F-4.2°C 11.9°F-11.2°C 58% 13.0 mph NNE20.9 kmh NNE 20.0 mph32.2 kmh 30.56 in1034.9 mb 0.00 in0.0 mm 0.00 in0.0 mm 0.00 in0.0 mm
03:16 AM 24.4°F-4.2°C 11.8°F-11.2°C 58% 10.0 mph NNW16.1 kmh NNW 20.0 mph32.2 kmh 30.56 in1034.9 mb 0.00 in0.0 mm 0.00 in0.0 mm 0.00 in0.0 mm
03:18 AM 24.4°F-4.2°C 11.8°F-11.2°C 58% 5.0 mph NW8.0 kmh NW 20.0 mph32.2 kmh 30.56 in1034.9 mb 0.00 in0.0 mm 0.00 in0.0 mm 0.00 in0.0 mm
03:20 AM 24.4°F-4.2°C 11.8°F-11.2°C 58% 4.0 mph N6.4 kmh N 20.0 mph32.2 kmh 30.56 in1034.9 mb 0.00 in0.0 mm 0.00 in0.0 mm 0.00 in0.0 mm
03:22 AM 24.3°F-4.3°C 11.7°F-11.3°C 58% 8.0 mph N12.9 kmh N 20.0 mph32.2 kmh 30.56 in1034.9 mb 0.00 in0.0 mm 0.00 in0.0 mm 0.00 in0.0 mm
03:24 AM 24.3°F-4.3°C 12.1°F-11.1°C 59% 11.0 mph NE17.7 kmh NE 20.0 mph32.2 kmh 30.56 in1034.9 mb 0.00 in0.0 mm 0.00 in0.0 mm 0.00 in0.0 mm
03:26 AM 24.3°F-4.3°C 12.1°F-11.1°C 59% 1.0 mph NE1.6 kmh NE 20.0 mph32.2 kmh 30.56 in1034.9 mb 0.00 in0.0 mm 0.00 in0.0 mm 0.00 in0.0 mm
03:28 AM 24.1°F-4.4°C 11.9°F-11.2°C 59% 9.0 mph NNW14.5 kmh NNW 20.0 mph32.2 kmh 30.56 in1034.9 mb 0.00 in0.0 mm 0.00 in0.0 mm 0.00 in0.0 mm
03:30 AM 24.1°F-4.4°C 11.9°F-11.2°C 59% 3.0 mph ENE4.8 kmh ENE 20.0 mph32.2 kmh 30.57 in1035.2 mb 0.00 in0.0 mm 0.00 in0.0 mm 0.00 in0.0 mm
03:32 AM 24.1°F-4.4°C 12.2°F-11.0°C 60% 15.0 mph NW24.1 kmh NW 15.0 mph24.1 kmh 30.57 in1035.2 mb 0.00 in0.0 mm 0.00 in0.0 mm 0.00 in0.0 mm
03:34 AM 24.1°F-4.4°C 12.2°F-11.0°C 60% 10.0 mph NNE16.1 kmh NNE 17.0 mph27.4 kmh 30.57 in1035.2 mb 0.00 in0.0 mm 0.00 in0.0 mm 0.00 in0.0 mm
03:36 AM 24.0°F-4.4°C 12.1°F-11.1°C 60% 14.0 mph N22.5 kmh N 20.0 mph32.2 kmh 30.57 in1035.2 mb 0.00 in0.0 mm 0.00 in0.0 mm 0.00 in0.0 mm
03:38 AM 24.0°F-4.4°C 12.1°F-11.1°C 60% 8.0 mph NNE12.9 kmh NNE 22.0 mph35.4 kmh 30.57 in1035.2 mb 0.00 in0.0 mm 0.00 in0.0 mm 0.00 in0.0 mm
03:40 AM 23.9°F-4.5°C 12.1°F-11.1°C 60% 1.0 mph E1.6 kmh E 22.0 mph35.4 kmh 30.57 in1035.2 mb 0.00 in0.0 mm 0.00 in0.0 mm 0.00 in0.0 mm
03:42 AM 23.8°F-4.6°C 12.0°F-11.1°C 60% 3.0 mph NNW4.8 kmh NNW 22.0 mph35.4 kmh 30.57 in1035.2 mb 0.00 in0.0 mm 0.00 in0.0 mm 0.00 in0.0 mm
03:44 AM 23.8°F-4.6°C 12.0°F-11.1°C 60% 9.0 mph N14.5 kmh N 22.0 mph35.4 kmh 30.57 in1035.2 mb 0.00 in0.0 mm 0.00 in0.0 mm 0.00 in0.0 mm
03:46 AM 23.7°F-4.6°C 11.9°F-11.2°C 60% 2.0 mph NNE3.2 kmh NNE 22.0 mph35.4 kmh 30.57 in1035.2 mb 0.00 in0.0 mm 0.00 in0.0 mm 0.00 in0.0 mm
03:48 AM 23.7°F-4.6°C 12.2°F-11.0°C 61% 4.0 mph N6.4 kmh N 22.0 mph35.4 kmh 30.57 in1035.2 mb 0.00 in0.0 mm 0.00 in0.0 mm 0.00 in0.0 mm
03:50 AM 23.6°F-4.7°C 11.8°F-11.2°C 60% 9.0 mph NNE14.5 kmh NNE 22.0 mph35.4 kmh 30.57 in1035.2 mb 0.00 in0.0 mm 0.00 in0.0 mm 0.00 in0.0 mm
03:52 AM 23.6°F-4.7°C 11.8°F-11.2°C 60% 6.0 mph NNW9.7 kmh NNW 22.0 mph35.4 kmh 30.57 in1035.2 mb 0.00 in0.0 mm 0.00 in0.0 mm 0.00 in0.0 mm
03:54 AM 23.6°F-4.7°C 11.8°F-11.2°C 60% 4.0 mph N6.4 kmh N 22.0 mph35.4 kmh 30.57 in1035.2 mb 0.00 in0.0 mm 0.00 in0.0 mm 0.00 in0.0 mm
03:56 AM 23.5°F-4.7°C 11.7°F-11.3°C 60% 10.0 mph NNE16.1 kmh NNE 22.0 mph35.4 kmh 30.57 in1035.2 mb 0.00 in0.0 mm 0.00 in0.0 mm 0.00 in0.0 mm
03:58 AM 23.5°F-4.7°C 11.7°F-11.3°C 60% 8.0 mph N12.9 kmh N 22.0 mph35.4 kmh 30.57 in1035.2 mb 0.00 in0.0 mm 0.00 in0.0 mm 0.00 in0.0 mm
04:00 AM 23.4°F-4.8°C 11.2°F-11.6°C 59% 8.0 mph NW12.9 kmh NW 22.0 mph35.4 kmh 30.57 in1035.2 mb 0.00 in0.0 mm 0.00 in0.0 mm 0.00 in0.0 mm
04:02 AM 23.4°F-4.8°C 11.6°F-11.3°C 60% 16.0 mph NNW25.7 kmh NNW 16.0 mph25.7 kmh 30.58 in1035.6 mb 0.00 in0.0 mm 0.00 in0.0 mm 0.00 in0.0 mm
04:04 AM 23.4°F-4.8°C 11.6°F-11.3°C 60% 8.0 mph N12.9 kmh N 16.0 mph25.7 kmh 30.58 in1035.6 mb 0.00 in0.0 mm 0.00 in0.0 mm 0.00 in0.0 mm
04:06 AM 23.4°F-4.8°C 11.2°F-11.6°C 59% 14.0 mph N22.5 kmh N 21.0 mph33.8 kmh 30.58 in1035.6 mb 0.00 in0.0 mm 0.00 in0.0 mm 0.00 in0.0 mm
04:08 AM 23.4°F-4.8°C 11.2°F-11.6°C 59% 11.0 mph ENE17.7 kmh ENE 21.0 mph33.8 kmh 30.58 in1035.6 mb 0.00 in0.0 mm 0.00 in0.0 mm 0.00 in0.0 mm
04:10 AM 23.3°F-4.8°C 11.1°F-11.6°C 59% 10.0 mph N16.1 kmh N 21.0 mph33.8 kmh 30.58 in1035.6 mb 0.00 in0.0 mm 0.00 in0.0 mm 0.00 in0.0 mm
04:12 AM 23.3°F-4.8°C 11.1°F-11.6°C 59% 13.0 mph N20.9 kmh N 21.0 mph33.8 kmh 30.58 in1035.6 mb 0.00 in0.0 mm 0.00 in0.0 mm 0.00 in0.0 mm
04:14 AM 23.2°F-4.9°C 11.0°F-11.7°C 59% 3.0 mph N4.8 kmh N 21.0 mph33.8 kmh 30.58 in1035.6 mb 0.00 in0.0 mm 0.00 in0.0 mm 0.00 in0.0 mm
04:16 AM 23.2°F-4.9°C 11.0°F-11.7°C 59% 4.0 mph N6.4 kmh N 21.0 mph33.8 kmh 30.58 in1035.6 mb 0.00 in0.0 mm 0.00 in0.0 mm 0.00 in0.0 mm
04:18 AM 23.2°F-4.9°C 11.0°F-11.7°C 59% 4.0 mph NW6.4 kmh NW 21.0 mph33.8 kmh 30.58 in1035.6 mb 0.00 in0.0 mm 0.00 in0.0 mm 0.00 in0.0 mm
04:20 AM 23.1°F-4.9°C 10.9°F-11.7°C 59% 5.0 mph NNW8.0 kmh NNW 21.0 mph33.8 kmh 30.58 in1035.6 mb 0.00 in0.0 mm 0.00 in0.0 mm 0.00 in0.0 mm
04:22 AM 23.1°F-4.9°C 10.9°F-11.7°C 59% 8.0 mph N12.9 kmh N 21.0 mph33.8 kmh 30.58 in1035.6 mb 0.00 in0.0 mm 0.00 in0.0 mm 0.00 in0.0 mm
04:24 AM 23.0°F-5.0°C 10.8°F-11.8°C 59% 4.0 mph NW6.4 kmh NW 21.0 mph33.8 kmh 30.58 in1035.6 mb 0.00 in0.0 mm 0.00 in0.0 mm 0.00 in0.0 mm
04:26 AM 23.1°F-4.9°C 10.9°F-11.7°C 59% 13.0 mph N20.9 kmh N 21.0 mph33.8 kmh 30.58 in1035.6 mb 0.00 in0.0 mm 0.00 in0.0 mm 0.00 in0.0 mm
04:28 AM 23.0°F-5.0°C 10.8°F-11.8°C 59% 13.0 mph N20.9 kmh N 21.0 mph33.8 kmh 30.58 in1035.6 mb 0.00 in0.0 mm 0.00 in0.0 mm 0.00 in0.0 mm
04:30 AM 23.0°F-5.0°C 10.8°F-11.8°C 59% 11.0 mph N17.7 kmh N 21.0 mph33.8 kmh 30.58 in1035.6 mb 0.00 in0.0 mm 0.00 in0.0 mm 0.00 in0.0 mm
04:32 AM 23.1°F-4.9°C 10.9°F-11.7°C 59% 10.0 mph NNW16.1 kmh NNW 10.0 mph16.1 kmh 30.58 in1035.6 mb 0.00 in0.0 mm 0.00 in0.0 mm 0.00 in0.0 mm
04:34 AM 23.0°F-5.0°C 10.4°F-12.0°C 58% 5.0 mph N8.0 kmh N 13.0 mph20.9 kmh 30.58 in1035.6 mb 0.00 in0.0 mm 0.00 in0.0 mm 0.00 in0.0 mm
04:36 AM 23.0°F-5.0°C 10.8°F-11.8°C 59% 5.0 mph NNE8.0 kmh NNE 17.0 mph27.4 kmh 30.59 in1035.9 mb 0.00 in0.0 mm 0.00 in0.0 mm 0.00 in0.0 mm
04:38 AM 23.0°F-5.0°C 10.8°F-11.8°C 59% 8.0 mph N12.9 kmh N 17.0 mph27.4 kmh 30.58 in1035.6 mb 0.00 in0.0 mm 0.00 in0.0 mm 0.00 in0.0 mm
04:40 AM 22.9°F-5.1°C 10.7°F-11.8°C 59% 9.0 mph WNW14.5 kmh WNW 17.0 mph27.4 kmh 30.58 in1035.6 mb 0.00 in0.0 mm 0.00 in0.0 mm 0.00 in0.0 mm
04:42 AM 22.9°F-5.1°C 11.1°F-11.6°C 60% 9.0 mph N14.5 kmh N 17.0 mph27.4 kmh 30.58 in1035.6 mb 0.00 in0.0 mm 0.00 in0.0 mm 0.00 in0.0 mm
04:44 AM 22.8°F-5.1°C 11.0°F-11.7°C 60% 6.0 mph NNW9.7 kmh NNW 17.0 mph27.4 kmh 30.59 in1035.9 mb 0.00 in0.0 mm 0.00 in0.0 mm 0.00 in0.0 mm
04:46 AM 22.8°F-5.1°C 11.0°F-11.7°C 60% 4.0 mph NW6.4 kmh NW 17.0 mph27.4 kmh 30.59 in1035.9 mb 0.00 in0.0 mm 0.00 in0.0 mm 0.00 in0.0 mm
04:48 AM 22.8°F-5.1°C 10.6°F-11.9°C 59% 8.0 mph N12.9 kmh N 19.0 mph30.6 kmh 30.59 in1035.9 mb 0.00 in0.0 mm 0.00 in0.0 mm 0.00 in0.0 mm
04:50 AM 22.7°F-5.2°C 10.9°F-11.7°C 60% 4.0 mph NW6.4 kmh NW 19.0 mph30.6 kmh 30.59 in1035.9 mb 0.00 in0.0 mm 0.00 in0.0 mm 0.00 in0.0 mm
04:52 AM 22.7°F-5.2°C 10.9°F-11.7°C 60% 9.0 mph N14.5 kmh N 19.0 mph30.6 kmh 30.59 in1035.9 mb 0.00 in0.0 mm 0.00 in0.0 mm 0.00 in0.0 mm
04:54 AM 22.6°F-5.2°C 10.8°F-11.8°C 60% 9.0 mph N14.5 kmh N 19.0 mph30.6 kmh 30.59 in1035.9 mb 0.00 in0.0 mm 0.00 in0.0 mm 0.00 in0.0 mm
04:56 AM 22.6°F-5.2°C 10.8°F-11.8°C 60% 9.0 mph N14.5 kmh N 19.0 mph30.6 kmh 30.59 in1035.9 mb 0.00 in0.0 mm 0.00 in0.0 mm 0.00 in0.0 mm
04:58 AM 22.6°F-5.2°C 10.8°F-11.8°C 60% 12.0 mph NW19.3 kmh NW 19.0 mph30.6 kmh 30.59 in1035.9 mb 0.00 in0.0 mm 0.00 in0.0 mm 0.00 in0.0 mm
05:00 AM 22.6°F-5.2°C 10.4°F-12.0°C 59% 3.0 mph NNE4.8 kmh NNE 19.0 mph30.6 kmh 30.59 in1035.9 mb 0.00 in0.0 mm 0.00 in0.0 mm 0.00 in0.0 mm
05:02 AM 22.6°F-5.2°C 10.8°F-11.8°C 60% 6.0 mph NW9.7 kmh NW 6.0 mph9.7 kmh 30.59 in1035.9 mb 0.00 in0.0 mm 0.00 in0.0 mm 0.00 in0.0 mm
05:04 AM 22.6°F-5.2°C 10.8°F-11.8°C 60% 7.0 mph NW11.3 kmh NW 18.0 mph29.0 kmh 30.59 in1035.9 mb 0.00 in0.0 mm 0.00 in0.0 mm 0.00 in0.0 mm
05:06 AM 22.6°F-5.2°C 10.8°F-11.8°C 60% 11.0 mph N17.7 kmh N 18.0 mph29.0 kmh 30.59 in1035.9 mb 0.00 in0.0 mm 0.00 in0.0 mm 0.00 in0.0 mm
05:08 AM 22.6°F-5.2°C 10.8°F-11.8°C 60% 8.0 mph NNW12.9 kmh NNW 18.0 mph29.0 kmh 30.59 in1035.9 mb 0.00 in0.0 mm 0.00 in0.0 mm 0.00 in0.0 mm
05:10 AM 22.5°F-5.3°C 10.7°F-11.8°C 60% 5.0 mph NE8.0 kmh NE 18.0 mph29.0 kmh 30.59 in1035.9 mb 0.00 in0.0 mm 0.00 in0.0 mm 0.00 in0.0 mm
05:12 AM 22.5°F-5.3°C 10.7°F-11.8°C 60% 3.0 mph N4.8 kmh N 18.0 mph29.0 kmh 30.59 in1035.9 mb 0.00 in0.0 mm 0.00 in0.0 mm 0.00 in0.0 mm
05:14 AM 22.5°F-5.3°C 10.7°F-11.8°C 60% 5.0 mph N8.0 kmh N 18.0 mph29.0 kmh 30.59 in1035.9 mb 0.00 in0.0 mm 0.00 in0.0 mm 0.00 in0.0 mm
05:16 AM 22.5°F-5.3°C 10.7°F-11.8°C 60% 6.0 mph NW9.7 kmh NW 18.0 mph29.0 kmh 30.59 in1035.9 mb 0.00 in0.0 mm 0.00 in0.0 mm 0.00 in0.0 mm
05:18 AM 22.4°F-5.3°C 11.0°F-11.7°C 61% 4.0 mph NNW6.4 kmh NNW 18.0 mph29.0 kmh 30.59 in1035.9 mb 0.00 in0.0 mm 0.00 in0.0 mm 0.00 in0.0 mm
05:20 AM 22.4°F-5.3°C 11.0°F-11.7°C 61% 10.0 mph N16.1 kmh N 20.0 mph32.2 kmh 30.59 in1035.9 mb 0.00 in0.0 mm 0.00 in0.0 mm 0.00 in0.0 mm
05:22 AM 22.3°F-5.4°C 10.9°F-11.7°C 61% 1.0 mph ENE1.6 kmh ENE 20.0 mph32.2 kmh 30.59 in1035.9 mb 0.00 in0.0 mm 0.00 in0.0 mm 0.00 in0.0 mm
05:24 AM 22.3°F-5.4°C 10.9°F-11.7°C 61% 12.0 mph NW19.3 kmh NW 20.0 mph32.2 kmh 30.58 in1035.6 mb 0.00 in0.0 mm 0.00 in0.0 mm 0.00 in0.0 mm
05:26 AM 22.2°F-5.4°C 10.8°F-11.8°C 61% 8.0 mph NW12.9 kmh NW 20.0 mph32.2 kmh 30.58 in1035.6 mb 0.00 in0.0 mm 0.00 in0.0 mm 0.00 in0.0 mm
05:28 AM 22.2°F-5.4°C 10.8°F-11.8°C 61% 4.0 mph NW6.4 kmh NW 20.0 mph32.2 kmh 30.58 in1035.6 mb 0.00 in0.0 mm 0.00 in0.0 mm 0.00 in0.0 mm
05:30 AM 22.2°F-5.4°C 10.8°F-11.8°C 61% 12.0 mph NW19.3 kmh NW 21.0 mph33.8 kmh 30.59 in1035.9 mb 0.00 in0.0 mm 0.00 in0.0 mm 0.00 in0.0 mm
05:32 AM 22.2°F-5.4°C 10.4°F-12.0°C 60% 13.0 mph NNW20.9 kmh NNW 21.0 mph33.8 kmh 30.59 in1035.9 mb 0.00 in0.0 mm 0.00 in0.0 mm 0.00 in0.0 mm
05:34 AM 22.2°F-5.4°C 10.4°F-12.0°C 60% 8.0 mph NW12.9 kmh NW 15.0 mph24.1 kmh 30.59 in1035.9 mb 0.00 in0.0 mm 0.00 in0.0 mm 0.00 in0.0 mm
05:36 AM 22.1°F-5.5°C 10.4°F-12.0°C 60% 11.0 mph NE17.7 kmh NE 18.0 mph29.0 kmh 30.59 in1035.9 mb 0.00 in0.0 mm 0.00 in0.0 mm 0.00 in0.0 mm
05:38 AM 22.1°F-5.5°C 10.4°F-12.0°C 60% 9.0 mph NNW14.5 kmh NNW 18.0 mph29.0 kmh 30.59 in1035.9 mb 0.00 in0.0 mm 0.00 in0.0 mm 0.00 in0.0 mm
05:40 AM 22.1°F-5.5°C 10.4°F-12.0°C 60% 9.0 mph NNE14.5 kmh NNE 18.0 mph29.0 kmh 30.59 in1035.9 mb 0.00 in0.0 mm 0.00 in0.0 mm 0.00 in0.0 mm
05:42 AM 22.1°F-5.5°C 10.4°F-12.0°C 60% 13.0 mph N20.9 kmh N 18.0 mph29.0 kmh 30.59 in1035.9 mb 0.00 in0.0 mm 0.00 in0.0 mm 0.00 in0.0 mm
05:44 AM 22.1°F-5.5°C 10.4°F-12.0°C 60% 14.0 mph NNW22.5 kmh NNW 18.0 mph29.0 kmh 30.59 in1035.9 mb 0.00 in0.0 mm 0.00 in0.0 mm 0.00 in0.0 mm
05:46 AM 22.1°F-5.5°C 10.4°F-12.0°C 60% 9.0 mph NW14.5 kmh NW 18.0 mph29.0 kmh 30.59 in1035.9 mb 0.00 in0.0 mm 0.00 in0.0 mm 0.00 in0.0 mm
05:48 AM 22.0°F-5.6°C 10.3°F-12.1°C 60% 8.0 mph NW12.9 kmh NW 18.0 mph29.0 kmh 30.60 in1036.2 mb 0.00 in0.0 mm 0.00 in0.0 mm 0.00 in0.0 mm
05:50 AM 22.1°F-5.5°C 10.4°F-12.0°C 60% 13.0 mph NNW20.9 kmh NNW 18.0 mph29.0 kmh 30.60 in1036.2 mb 0.00 in0.0 mm 0.00 in0.0 mm 0.00 in0.0 mm
05:52 AM 22.1°F-5.5°C 10.4°F-12.0°C 60% 15.0 mph NW24.1 kmh NW 18.0 mph29.0 kmh 30.60 in1036.2 mb 0.00 in0.0 mm 0.00 in0.0 mm 0.00 in0.0 mm
05:54 AM 22.0°F-5.6°C 9.9°F-12.3°C 59% 9.0 mph NNW14.5 kmh NNW 20.0 mph32.2 kmh 30.60 in1036.2 mb 0.00 in0.0 mm 0.00 in0.0 mm 0.00 in0.0 mm
05:56 AM 22.0°F-5.6°C 9.9°F-12.3°C 59% 10.0 mph N16.1 kmh N 20.0 mph32.2 kmh 30.60 in1036.2 mb 0.00 in0.0 mm 0.00 in0.0 mm 0.00 in0.0 mm
05:58 AM 22.0°F-5.6°C 9.9°F-12.3°C 59% 5.0 mph NW8.0 kmh NW 20.0 mph32.2 kmh 30.60 in1036.2 mb 0.00 in0.0 mm 0.00 in0.0 mm 0.00 in0.0 mm
06:00 AM 22.0°F-5.6°C 9.9°F-12.3°C 59% 8.0 mph NW12.9 kmh NW 20.0 mph32.2 kmh 30.60 in1036.2 mb 0.00 in0.0 mm 0.00 in0.0 mm 0.00 in0.0 mm
06:02 AM 21.9°F-5.6°C 9.8°F-12.3°C 59% 5.0 mph N8.0 kmh N 20.0 mph32.2 kmh 30.60 in1036.2 mb 0.00 in0.0 mm 0.00 in0.0 mm 0.00 in0.0 mm
06:04 AM 21.9°F-5.6°C 9.8°F-12.3°C 59% 4.0 mph N6.4 kmh N 10.0 mph16.1 kmh 30.61 in1036.6 mb 0.00 in0.0 mm 0.00 in0.0 mm 0.00 in0.0 mm
06:06 AM 21.9°F-5.6°C 9.8°F-12.3°C 59% 5.0 mph N8.0 kmh N 15.0 mph24.1 kmh 30.60 in1036.2 mb 0.00 in0.0 mm 0.00 in0.0 mm 0.00 in0.0 mm
06:08 AM 21.9°F-5.6°C 9.8°F-12.3°C 59% 5.0 mph NE8.0 kmh NE 15.0 mph24.1 kmh 30.61 in1036.6 mb 0.00 in0.0 mm 0.00 in0.0 mm 0.00 in0.0 mm
06:10 AM 21.8°F-5.7°C 9.7°F-12.4°C 59% 8.0 mph NNW12.9 kmh NNW 15.0 mph24.1 kmh 30.61 in1036.6 mb 0.00 in0.0 mm 0.00 in0.0 mm 0.00 in0.0 mm
06:12 AM 21.8°F-5.7°C 9.7°F-12.4°C 59% 6.0 mph N9.7 kmh N 15.0 mph24.1 kmh 30.61 in1036.6 mb 0.00 in0.0 mm 0.00 in0.0 mm 0.00 in0.0 mm
06:14 AM 21.8°F-5.7°C 9.7°F-12.4°C 59% 5.0 mph N8.0 kmh N 15.0 mph24.1 kmh 30.60 in1036.2 mb 0.00 in0.0 mm 0.00 in0.0 mm 0.00 in0.0 mm
06:16 AM 21.7°F-5.7°C 9.6°F-12.4°C 59% 14.0 mph NW22.5 kmh NW 15.0 mph24.1 kmh 30.61 in1036.6 mb 0.00 in0.0 mm 0.00 in0.0 mm 0.00 in0.0 mm
06:18 AM 21.7°F-5.7°C 9.6°F-12.4°C 59% 12.0 mph NW19.3 kmh NW 17.0 mph27.4 kmh 30.61 in1036.6 mb 0.00 in0.0 mm 0.00 in0.0 mm 0.00 in0.0 mm
06:20 AM 21.7°F-5.7°C 9.6°F-12.4°C 59% 11.0 mph N17.7 kmh N 17.0 mph27.4 kmh 30.60 in1036.2 mb 0.00 in0.0 mm 0.00 in0.0 mm 0.00 in0.0 mm
06:22 AM 21.7°F-5.7°C 9.6°F-12.4°C 59% 4.0 mph N6.4 kmh N 17.0 mph27.4 kmh 30.61 in1036.6 mb 0.00 in0.0 mm 0.00 in0.0 mm 0.00 in0.0 mm
06:24 AM 21.7°F-5.7°C 9.6°F-12.4°C 59% 8.0 mph NNE12.9 kmh NNE 17.0 mph27.4 kmh 30.61 in1036.6 mb 0.00 in0.0 mm 0.00 in0.0 mm 0.00 in0.0 mm
06:26 AM 21.7°F-5.7°C 10.0°F-12.2°C 60% 6.0 mph NW9.7 kmh NW 17.0 mph27.4 kmh 30.61 in1036.6 mb 0.00 in0.0 mm 0.00 in0.0 mm 0.00 in0.0 mm
06:28 AM 21.6°F-5.8°C 9.9°F-12.3°C 60% 11.0 mph NW17.7 kmh NW 17.0 mph27.4 kmh 30.61 in1036.6 mb 0.00 in0.0 mm 0.00 in0.0 mm 0.00 in0.0 mm
06:30 AM 21.6°F-5.8°C 9.9°F-12.3°C 60% 5.0 mph N8.0 kmh N 17.0 mph27.4 kmh 30.61 in1036.6 mb 0.00 in0.0 mm 0.00 in0.0 mm 0.00 in0.0 mm
06:32 AM 21.6°F-5.8°C 9.5°F-12.5°C 59% 9.0 mph N14.5 kmh N 17.0 mph27.4 kmh 30.61 in1036.6 mb 0.00 in0.0 mm 0.00 in0.0 mm 0.00 in0.0 mm
06:34 AM 21.6°F-5.8°C 9.9°F-12.3°C 60% 5.0 mph N8.0 kmh N 14.0 mph22.5 kmh 30.61 in1036.6 mb 0.00 in0.0 mm 0.00 in0.0 mm 0.00 in0.0 mm
06:36 AM 21.5°F-5.8°C 9.8°F-12.3°C 60% 9.0 mph NNW14.5 kmh NNW 14.0 mph22.5 kmh 30.61 in1036.6 mb 0.00 in0.0 mm 0.00 in0.0 mm 0.00 in0.0 mm
06:38 AM 21.5°F-5.8°C 9.8°F-12.3°C 60% 6.0 mph NNW9.7 kmh NNW 14.0 mph22.5 kmh 30.61 in1036.6 mb 0.00 in0.0 mm 0.00 in0.0 mm 0.00 in0.0 mm
06:40 AM 21.5°F-5.8°C 9.8°F-12.3°C 60% 10.0 mph NNW16.1 kmh NNW 14.0 mph22.5 kmh 30.61 in1036.6 mb 0.00 in0.0 mm 0.00 in0.0 mm 0.00 in0.0 mm
06:42 AM 21.4°F-5.9°C 9.7°F-12.4°C 60% 9.0 mph N14.5 kmh N 14.0 mph22.5 kmh 30.61 in1036.6 mb 0.00 in0.0 mm 0.00 in0.0 mm 0.00 in0.0 mm
06:44 AM 21.4°F-5.9°C 9.7°F-12.4°C 60% 2.0 mph N3.2 kmh N 14.0 mph22.5 kmh 30.61 in1036.6 mb 0.00 in0.0 mm 0.00 in0.0 mm 0.00 in0.0 mm
06:46 AM 21.4°F-5.9°C 9.7°F-12.4°C 60% 11.0 mph NNW17.7 kmh NNW 14.0 mph22.5 kmh 30.61 in1036.6 mb 0.00 in0.0 mm 0.00 in0.0 mm 0.00 in0.0 mm
06:48 AM 21.3°F-5.9°C 9.6°F-12.4°C 60% 4.0 mph N6.4 kmh N 15.0 mph24.1 kmh 30.61 in1036.6 mb 0.00 in0.0 mm 0.00 in0.0 mm 0.00 in0.0 mm
06:50 AM 21.3°F-5.9°C 9.6°F-12.4°C 60% 12.0 mph NNW19.3 kmh NNW 16.0 mph25.7 kmh 30.62 in1036.9 mb 0.00 in0.0 mm 0.00 in0.0 mm 0.00 in0.0 mm
06:52 AM 21.3°F-5.9°C 9.6°F-12.4°C 60% 8.0 mph N12.9 kmh N 16.0 mph25.7 kmh 30.61 in1036.6 mb 0.00 in0.0 mm 0.00 in0.0 mm 0.00 in0.0 mm
06:54 AM 21.2°F-6.0°C 9.5°F-12.5°C 60% 4.0 mph NNE6.4 kmh NNE 16.0 mph25.7 kmh 30.61 in1036.6 mb 0.00 in0.0 mm 0.00 in0.0 mm 0.00 in0.0 mm
06:56 AM 21.2°F-6.0°C 9.5°F-12.5°C 60% 5.0 mph NNW8.0 kmh NNW 16.0 mph25.7 kmh 30.61 in1036.6 mb 0.00 in0.0 mm 0.00 in0.0 mm 0.00 in0.0 mm
06:58 AM 21.2°F-6.0°C 9.5°F-12.5°C 60% 9.0 mph NNE14.5 kmh NNE 17.0 mph27.4 kmh 30.61 in1036.6 mb 0.00 in0.0 mm 0.00 in0.0 mm 0.00 in0.0 mm
07:00 AM 21.2°F-6.0°C 9.5°F-12.5°C 60% 10.0 mph NNW16.1 kmh NNW 17.0 mph27.4 kmh 30.61 in1036.6 mb 0.00 in0.0 mm 0.00 in0.0 mm 0.00 in0.0 mm
07:02 AM 21.2°F-6.0°C 9.5°F-12.5°C 60% 14.0 mph N22.5 kmh N 17.0 mph27.4 kmh 30.61 in1036.6 mb 0.00 in0.0 mm 0.00 in0.0 mm 0.00 in0.0 mm
07:04 AM 21.2°F-6.0°C 9.5°F-12.5°C 60% 5.0 mph N8.0 kmh N 14.0 mph22.5 kmh 30.61 in1036.6 mb 0.00 in0.0 mm 0.00 in0.0 mm 0.00 in0.0 mm
07:06 AM 21.2°F-6.0°C 9.9°F-12.3°C 61% 6.0 mph NNW9.7 kmh NNW 14.0 mph22.5 kmh 30.61 in1036.6 mb 0.00 in0.0 mm 0.00 in0.0 mm 0.00 in0.0 mm
07:08 AM 21.1°F-6.1°C 9.8°F-12.3°C 61% 9.0 mph NW14.5 kmh NW 15.0 mph24.1 kmh 30.61 in1036.6 mb 0.00 in0.0 mm 0.00 in0.0 mm 0.00 in0.0 mm
07:10 AM 21.0°F-6.1°C 9.7°F-12.4°C 61% 13.0 mph N20.9 kmh N 15.0 mph24.1 kmh 30.61 in1036.6 mb 0.00 in0.0 mm 0.00 in0.0 mm 0.00 in0.0 mm
07:12 AM 21.0°F-6.1°C 9.7°F-12.4°C 61% 10.0 mph NNW16.1 kmh NNW 15.0 mph24.1 kmh 30.62 in1036.9 mb 0.00 in0.0 mm 0.00 in0.0 mm 0.00 in0.0 mm
07:14 AM 21.0°F-6.1°C 9.7°F-12.4°C 61% 3.0 mph N4.8 kmh N 15.0 mph24.1 kmh 30.62 in1036.9 mb 0.00 in0.0 mm 0.00 in0.0 mm 0.00 in0.0 mm
07:16 AM 21.0°F-6.1°C 9.7°F-12.4°C 61% 6.0 mph NNW9.7 kmh NNW 15.0 mph24.1 kmh 30.61 in1036.6 mb 0.00 in0.0 mm 0.00 in0.0 mm 0.00 in0.0 mm
07:18 AM 21.0°F-6.1°C 9.7°F-12.4°C 61% 4.0 mph NNW6.4 kmh NNW 15.0 mph24.1 kmh 30.61 in1036.6 mb 0.00 in0.0 mm 0.00 in0.0 mm 0.00 in0.0 mm
07:20 AM 21.0°F-6.1°C 9.7°F-12.4°C 61% 11.0 mph NW17.7 kmh NW 15.0 mph24.1 kmh 30.61 in1036.6 mb 0.00 in0.0 mm 0.00 in0.0 mm 0.00 in0.0 mm
07:22 AM 21.0°F-6.1°C 9.7°F-12.4°C 61% 13.0 mph NNW20.9 kmh NNW 15.0 mph24.1 kmh 30.62 in1036.9 mb 0.00 in0.0 mm 0.00 in0.0 mm 0.00 in0.0 mm
07:24 AM 21.0°F-6.1°C 9.7°F-12.4°C 61% 12.0 mph N19.3 kmh N 15.0 mph24.1 kmh 30.62 in1036.9 mb 0.00 in0.0 mm 0.00 in0.0 mm 0.00 in0.0 mm
07:26 AM 21.0°F-6.1°C 9.7°F-12.4°C 61% 5.0 mph N8.0 kmh N 15.0 mph24.1 kmh 30.62 in1036.9 mb 0.00 in0.0 mm 0.00 in0.0 mm 0.00 in0.0 mm
07:28 AM 21.1°F-6.1°C 9.8°F-12.3°C 61% 3.0 mph N4.8 kmh N 15.0 mph24.1 kmh 30.62 in1036.9 mb 0.00 in0.0 mm 0.00 in0.0 mm 0.00 in0.0 mm
07:30 AM 21.0°F-6.1°C 9.7°F-12.4°C 61% 5.0 mph N8.0 kmh N 16.0 mph25.7 kmh 30.62 in1036.9 mb 0.00 in0.0 mm 0.00 in0.0 mm 0.00 in0.0 mm
07:32 AM 21.1°F-6.1°C 9.8°F-12.3°C 61% 6.0 mph N9.7 kmh N 16.0 mph25.7 kmh 30.62 in1036.9 mb 0.00 in0.0 mm 0.00 in0.0 mm 0.00 in0.0 mm
07:34 AM 21.0°F-6.1°C 9.7°F-12.4°C 61% 4.0 mph NNW6.4 kmh NNW 15.0 mph24.1 kmh 30.62 in1036.9 mb 0.00 in0.0 mm 0.00 in0.0 mm 0.00 in0.0 mm
07:36 AM 21.1°F-6.1°C 9.8°F-12.3°C 61% 13.0 mph N20.9 kmh N 15.0 mph24.1 kmh 30.62 in1036.9 mb 0.00 in0.0 mm 0.00 in0.0 mm 0.00 in0.0 mm
07:38 AM 21.1°F-6.1°C 9.4°F-12.6°C 60% 6.0 mph N9.7 kmh N 17.0 mph27.4 kmh 30.62 in1036.9 mb 0.00 in0.0 mm 0.00 in0.0 mm 0.00 in0.0 mm
07:40 AM 21.2°F-6.0°C 9.5°F-12.5°C 60% 8.0 mph ENE12.9 kmh ENE 17.0 mph27.4 kmh 30.62 in1036.9 mb 0.00 in0.0 mm 0.00 in0.0 mm 0.00 in0.0 mm
07:42 AM 21.3°F-5.9°C 9.6°F-12.4°C 60% 6.0 mph NE9.7 kmh NE 17.0 mph27.4 kmh 30.62 in1036.9 mb 0.00 in0.0 mm 0.00 in0.0 mm 0.00 in0.0 mm
07:44 AM 21.4°F-5.9°C 9.7°F-12.4°C 60% 8.0 mph NNW12.9 kmh NNW 17.0 mph27.4 kmh 30.62 in1036.9 mb 0.00 in0.0 mm 0.00 in0.0 mm 0.00 in0.0 mm
07:46 AM 21.5°F-5.8°C 9.8°F-12.3°C 60% 5.0 mph NNE8.0 kmh NNE 17.0 mph27.4 kmh 30.61 in1036.6 mb 0.00 in0.0 mm 0.00 in0.0 mm 0.00 in0.0 mm
07:48 AM 21.5°F-5.8°C 9.4°F-12.6°C 59% 12.0 mph NW19.3 kmh NW 18.0 mph29.0 kmh 30.61 in1036.6 mb 0.00 in0.0 mm 0.00 in0.0 mm 0.00 in0.0 mm
07:50 AM 21.4°F-5.9°C 9.3°F-12.6°C 59% 13.0 mph NW20.9 kmh NW 18.0 mph29.0 kmh 30.62 in1036.9 mb 0.00 in0.0 mm 0.00 in0.0 mm 0.00 in0.0 mm
07:52 AM 21.4°F-5.9°C 9.3°F-12.6°C 59% 10.0 mph NNE16.1 kmh NNE 23.0 mph37.0 kmh 30.62 in1036.9 mb 0.00 in0.0 mm 0.00 in0.0 mm 0.00 in0.0 mm
07:54 AM 21.4°F-5.9°C 8.9°F-12.8°C 58% 9.0 mph NE14.5 kmh NE 23.0 mph37.0 kmh 30.61 in1036.6 mb 0.00 in0.0 mm 0.00 in0.0 mm 0.00 in0.0 mm
07:56 AM 21.4°F-5.9°C 8.9°F-12.8°C 58% 16.0 mph NNE25.7 kmh NNE 23.0 mph37.0 kmh 30.61 in1036.6 mb 0.00 in0.0 mm 0.00 in0.0 mm 0.00 in0.0 mm
07:58 AM 21.5°F-5.8°C 9.4°F-12.6°C 59% 2.0 mph N3.2 kmh N 23.0 mph37.0 kmh 30.62 in1036.9 mb 0.00 in0.0 mm 0.00 in0.0 mm 0.00 in0.0 mm
08:00 AM 21.7°F-5.7°C 9.2°F-12.7°C 58% 6.0 mph ENE9.7 kmh ENE 23.0 mph37.0 kmh 30.62 in1036.9 mb 0.00 in0.0 mm 0.00 in0.0 mm 0.00 in0.0 mm
08:02 AM 21.7°F-5.7°C 9.6°F-12.4°C 59% 4.0 mph NW6.4 kmh NW 23.0 mph37.0 kmh 30.62 in1036.9 mb 0.00 in0.0 mm 0.00 in0.0 mm 0.00 in0.0 mm
08:04 AM 21.8°F-5.7°C 9.3°F-12.6°C 58% 9.0 mph NE14.5 kmh NE 11.0 mph17.7 kmh 30.62 in1036.9 mb 0.00 in0.0 mm 0.00 in0.0 mm 0.00 in0.0 mm
08:06 AM 21.8°F-5.7°C 9.3°F-12.6°C 58% 15.0 mph N24.1 kmh N 20.0 mph32.2 kmh 30.62 in1036.9 mb 0.00 in0.0 mm 0.00 in0.0 mm 0.00 in0.0 mm
08:08 AM 21.8°F-5.7°C 8.9°F-12.8°C 57% 11.0 mph NW17.7 kmh NW 20.0 mph32.2 kmh 30.62 in1036.9 mb 0.00 in0.0 mm 0.00 in0.0 mm 0.00 in0.0 mm
08:10 AM 21.8°F-5.7°C 8.9°F-12.8°C 57% 14.0 mph NW22.5 kmh NW 20.0 mph32.2 kmh 30.62 in1036.9 mb 0.00 in0.0 mm 0.00 in0.0 mm 0.00 in0.0 mm
08:12 AM 21.9°F-5.6°C 9.0°F-12.8°C 57% 6.0 mph N9.7 kmh N 20.0 mph32.2 kmh 30.62 in1036.9 mb 0.00 in0.0 mm 0.00 in0.0 mm 0.00 in0.0 mm
08:14 AM 22.0°F-5.6°C 9.1°F-12.7°C 57% 4.0 mph NNW6.4 kmh NNW 20.0 mph32.2 kmh 30.62 in1036.9 mb 0.00 in0.0 mm 0.00 in0.0 mm 0.00 in0.0 mm
08:16 AM 22.1°F-5.5°C 9.2°F-12.7°C 57% 10.0 mph NE16.1 kmh NE 20.0 mph32.2 kmh 30.61 in1036.6 mb 0.00 in0.0 mm 0.00 in0.0 mm 0.00 in0.0 mm
08:18 AM 22.3°F-5.4°C 9.4°F-12.6°C 57% 3.0 mph NNW4.8 kmh NNW 20.0 mph32.2 kmh 30.61 in1036.6 mb 0.00 in0.0 mm 0.00 in0.0 mm 0.00 in0.0 mm
08:20 AM 22.4°F-5.3°C 9.1°F-12.7°C 56% 9.0 mph N14.5 kmh N 20.0 mph32.2 kmh 30.61 in1036.6 mb 0.00 in0.0 mm 0.00 in0.0 mm 0.00 in0.0 mm
08:22 AM 22.3°F-5.4°C 9.0°F-12.8°C 56% 9.0 mph NE14.5 kmh NE 20.0 mph32.2 kmh 30.61 in1036.6 mb 0.00 in0.0 mm 0.00 in0.0 mm 0.00 in0.0 mm
08:24 AM 22.2°F-5.4°C 8.9°F-12.8°C 56% 4.0 mph NW6.4 kmh NW 20.0 mph32.2 kmh 30.62 in1036.9 mb 0.00 in0.0 mm 0.00 in0.0 mm 0.00 in0.0 mm
08:26 AM 22.2°F-5.4°C 8.9°F-12.8°C 56% 2.0 mph N3.2 kmh N 20.0 mph32.2 kmh 30.62 in1036.9 mb 0.00 in0.0 mm 0.00 in0.0 mm 0.00 in0.0 mm
08:28 AM 22.3°F-5.4°C 9.0°F-12.8°C 56% 14.0 mph N22.5 kmh N 20.0 mph32.2 kmh 30.62 in1036.9 mb 0.00 in0.0 mm 0.00 in0.0 mm 0.00 in0.0 mm
08:30 AM 22.5°F-5.3°C 9.2°F-12.7°C 56% 2.0 mph N3.2 kmh N 20.0 mph32.2 kmh 30.62 in1036.9 mb 0.00 in0.0 mm 0.00 in0.0 mm 0.00 in0.0 mm
08:32 AM 22.6°F-5.2°C 9.3°F-12.6°C 56% 2.0 mph NNE3.2 kmh NNE 20.0 mph32.2 kmh 30.62 in1036.9 mb 0.00 in0.0 mm 0.00 in0.0 mm 0.00 in0.0 mm
08:34 AM 22.8°F-5.1°C 9.5°F-12.5°C 56% 11.0 mph NNW17.7 kmh NNW 16.0 mph25.7 kmh 30.62 in1036.9 mb 0.00 in0.0 mm 0.00 in0.0 mm 0.00 in0.0 mm
08:36 AM 22.8°F-5.1°C 9.1°F-12.7°C 55% 11.0 mph NNW17.7 kmh NNW 16.0 mph25.7 kmh 30.62 in1036.9 mb 0.00 in0.0 mm 0.00 in0.0 mm 0.00 in0.0 mm
08:38 AM 22.8°F-5.1°C 8.7°F-12.9°C 54% 3.0 mph NNE4.8 kmh NNE 16.0 mph25.7 kmh 30.62 in1036.9 mb 0.00 in0.0 mm 0.00 in0.0 mm 0.00 in0.0 mm
08:40 AM 22.9°F-5.1°C 8.8°F-12.9°C 54% 8.0 mph NNE12.9 kmh NNE 17.0 mph27.4 kmh 30.62 in1036.9 mb 0.00 in0.0 mm 0.00 in0.0 mm 0.00 in0.0 mm
08:42 AM 22.9°F-5.1°C 8.8°F-12.9°C 54% 8.0 mph N12.9 kmh N 17.0 mph27.4 kmh 30.62 in1036.9 mb 0.00 in0.0 mm 0.00 in0.0 mm 0.00 in0.0 mm
08:44 AM 23.0°F-5.0°C 8.9°F-12.8°C 54% 4.0 mph N6.4 kmh N 17.0 mph27.4 kmh 30.62 in1036.9 mb 0.00 in0.0 mm 0.00 in0.0 mm 0.00 in0.0 mm
08:46 AM 23.2°F-4.9°C 9.0°F-12.8°C 54% 2.0 mph N3.2 kmh N 17.0 mph27.4 kmh 30.62 in1036.9 mb 0.00 in0.0 mm 0.00 in0.0 mm 0.00 in0.0 mm
08:48 AM 23.4°F-4.8°C 8.8°F-12.9°C 53% 8.0 mph NW12.9 kmh NW 17.0 mph27.4 kmh 30.62 in1036.9 mb 0.00 in0.0 mm 0.00 in0.0 mm 0.00 in0.0 mm
08:50 AM 23.6°F-4.7°C 9.4°F-12.6°C 54% 13.0 mph N20.9 kmh N 17.0 mph27.4 kmh 30.62 in1036.9 mb 0.00 in0.0 mm 0.00 in0.0 mm 0.00 in0.0 mm
08:52 AM 23.6°F-4.7°C 9.0°F-12.8°C 53% 5.0 mph NE8.0 kmh NE 17.0 mph27.4 kmh 30.62 in1036.9 mb 0.00 in0.0 mm 0.00 in0.0 mm 0.00 in0.0 mm
08:54 AM 23.6°F-4.7°C 9.0°F-12.8°C 53% 7.0 mph NE11.3 kmh NE 17.0 mph27.4 kmh 30.62 in1036.9 mb 0.00 in0.0 mm 0.00 in0.0 mm 0.00 in0.0 mm
08:56 AM 23.8°F-4.6°C 8.8°F-12.9°C 52% 13.0 mph NE20.9 kmh NE 17.0 mph27.4 kmh 30.62 in1036.9 mb 0.00 in0.0 mm 0.00 in0.0 mm 0.00 in0.0 mm
08:58 AM 23.9°F-4.5°C 8.9°F-12.8°C 52% 5.0 mph NE8.0 kmh NE 17.0 mph27.4 kmh 30.62 in1036.9 mb 0.00 in0.0 mm 0.00 in0.0 mm 0.00 in0.0 mm
09:00 AM 24.1°F-4.4°C 9.0°F-12.8°C 52% 5.0 mph NE8.0 kmh NE 17.0 mph27.4 kmh 30.62 in1036.9 mb 0.00 in0.0 mm 0.00 in0.0 mm 0.00 in0.0 mm
09:02 AM 24.2°F-4.3°C 8.7°F-12.9°C 51% 8.0 mph NNE12.9 kmh NNE 17.0 mph27.4 kmh 30.62 in1036.9 mb 0.00 in0.0 mm 0.00 in0.0 mm 0.00 in0.0 mm
09:04 AM 24.1°F-4.4°C 8.6°F-13.0°C 51% 3.0 mph NNW4.8 kmh NNW 15.0 mph24.1 kmh 30.62 in1036.9 mb 0.00 in0.0 mm 0.00 in0.0 mm 0.00 in0.0 mm
09:06 AM 24.1°F-4.4°C 8.6°F-13.0°C 51% 11.0 mph NW17.7 kmh NW 15.0 mph24.1 kmh 30.62 in1036.9 mb 0.00 in0.0 mm 0.00 in0.0 mm 0.00 in0.0 mm
09:08 AM 24.1°F-4.4°C 8.2°F-13.2°C 50% 7.0 mph N11.3 kmh N 19.0 mph30.6 kmh 30.62 in1036.9 mb 0.00 in0.0 mm 0.00 in0.0 mm 0.00 in0.0 mm
09:10 AM 24.1°F-4.4°C 8.6°F-13.0°C 51% 6.0 mph NNW9.7 kmh NNW 19.0 mph30.6 kmh 30.63 in1037.3 mb 0.00 in0.0 mm 0.00 in0.0 mm 0.00 in0.0 mm
09:12 AM 24.1°F-4.4°C 8.6°F-13.0°C 51% 13.0 mph NW20.9 kmh NW 19.0 mph30.6 kmh 30.63 in1037.3 mb 0.00 in0.0 mm 0.00 in0.0 mm 0.00 in0.0 mm
09:14 AM 24.1°F-4.4°C 8.2°F-13.2°C 50% 10.0 mph N16.1 kmh N 20.0 mph32.2 kmh 30.63 in1037.3 mb 0.00 in0.0 mm 0.00 in0.0 mm 0.00 in0.0 mm
09:16 AM 24.0°F-4.4°C 8.1°F-13.3°C 50% 9.0 mph NNW14.5 kmh NNW 20.0 mph32.2 kmh 30.62 in1036.9 mb 0.00 in0.0 mm 0.00 in0.0 mm 0.00 in0.0 mm
09:18 AM 24.1°F-4.4°C 8.2°F-13.2°C 50% 4.0 mph NNE6.4 kmh NNE 20.0 mph32.2 kmh 30.63 in1037.3 mb 0.00 in0.0 mm 0.00 in0.0 mm 0.00 in0.0 mm
09:20 AM 24.3°F-4.3°C 8.4°F-13.1°C 50% 6.0 mph NNE9.7 kmh NNE 20.0 mph32.2 kmh 30.63 in1037.3 mb 0.00 in0.0 mm 0.00 in0.0 mm 0.00 in0.0 mm
09:22 AM 24.7°F-4.1°C 8.7°F-12.9°C 50% 4.0 mph NNE6.4 kmh NNE 20.0 mph32.2 kmh 30.63 in1037.3 mb 0.00 in0.0 mm 0.00 in0.0 mm 0.00 in0.0 mm
09:24 AM 24.8°F-4.0°C 8.4°F-13.1°C 49% 5.0 mph N8.0 kmh N 20.0 mph32.2 kmh 30.64 in1037.6 mb 0.00 in0.0 mm 0.00 in0.0 mm 0.00 in0.0 mm
09:26 AM 24.9°F-3.9°C 8.5°F-13.1°C 49% 6.0 mph NNW9.7 kmh NNW 20.0 mph32.2 kmh 30.64 in1037.6 mb 0.00 in0.0 mm 0.00 in0.0 mm 0.00 in0.0 mm
09:28 AM 25.0°F-3.9°C 8.6°F-13.0°C 49% 4.0 mph NW6.4 kmh NW 20.0 mph32.2 kmh 30.64 in1037.6 mb 0.00 in0.0 mm 0.00 in0.0 mm 0.00 in0.0 mm
09:30 AM 25.0°F-3.9°C 8.1°F-13.3°C 48% 6.0 mph NNE9.7 kmh NNE 20.0 mph32.2 kmh 30.63 in1037.3 mb 0.00 in0.0 mm 0.00 in0.0 mm 0.00 in0.0 mm
09:32 AM 24.9°F-3.9°C 8.0°F-13.3°C 48% 13.0 mph NW20.9 kmh NW 20.0 mph32.2 kmh 30.64 in1037.6 mb 0.00 in0.0 mm 0.00 in0.0 mm 0.00 in0.0 mm
09:34 AM 25.0°F-3.9°C 8.1°F-13.3°C 48% 15.0 mph NNW24.1 kmh NNW 15.0 mph24.1 kmh 30.64 in1037.6 mb 0.00 in0.0 mm 0.00 in0.0 mm 0.00 in0.0 mm
09:36 AM 24.9°F-3.9°C 8.0°F-13.3°C 48% 4.0 mph N6.4 kmh N 15.0 mph24.1 kmh 30.64 in1037.6 mb 0.00 in0.0 mm 0.00 in0.0 mm 0.00 in0.0 mm
09:38 AM 25.1°F-3.8°C 8.2°F-13.2°C 48% 8.0 mph WNW12.9 kmh WNW 15.0 mph24.1 kmh 30.64 in1037.6 mb 0.00 in0.0 mm 0.00 in0.0 mm 0.00 in0.0 mm
09:40 AM 25.1°F-3.8°C 8.2°F-13.2°C 48% 13.0 mph N20.9 kmh N 17.0 mph27.4 kmh 30.64 in1037.6 mb 0.00 in0.0 mm 0.00 in0.0 mm 0.00 in0.0 mm
09:42 AM 25.0°F-3.9°C 8.1°F-13.3°C 48% 10.0 mph NW16.1 kmh NW 17.0 mph27.4 kmh 30.64 in1037.6 mb 0.00 in0.0 mm 0.00 in0.0 mm 0.00 in0.0 mm
09:44 AM 25.2°F-3.8°C 8.3°F-13.2°C 48% 12.0 mph NNW19.3 kmh NNW 17.0 mph27.4 kmh 30.64 in1037.6 mb 0.00 in0.0 mm 0.00 in0.0 mm 0.00 in0.0 mm
09:46 AM 25.2°F-3.8°C 8.3°F-13.2°C 48% 5.0 mph NNW8.0 kmh NNW 17.0 mph27.4 kmh 30.64 in1037.6 mb 0.00 in0.0 mm 0.00 in0.0 mm 0.00 in0.0 mm
09:48 AM 25.3°F-3.7°C 8.4°F-13.1°C 48% 8.0 mph NNW12.9 kmh NNW 17.0 mph27.4 kmh 30.64 in1037.6 mb 0.00 in0.0 mm 0.00 in0.0 mm 0.00 in0.0 mm
09:50 AM 25.5°F-3.6°C 8.6°F-13.0°C 48% 13.0 mph NW20.9 kmh NW 17.0 mph27.4 kmh 30.64 in1037.6 mb 0.00 in0.0 mm 0.00 in0.0 mm 0.00 in0.0 mm
09:52 AM 25.5°F-3.6°C 8.1°F-13.3°C 47% 10.0 mph NW16.1 kmh NW 17.0 mph27.4 kmh 30.63 in1037.3 mb 0.00 in0.0 mm 0.00 in0.0 mm 0.00 in0.0 mm
09:54 AM 25.5°F-3.6°C 7.6°F-13.6°C 46% 12.0 mph NW19.3 kmh NW 17.0 mph27.4 kmh 30.63 in1037.3 mb 0.00 in0.0 mm 0.00 in0.0 mm 0.00 in0.0 mm
09:56 AM 25.5°F-3.6°C 8.1°F-13.3°C 47% 10.0 mph N16.1 kmh N 17.0 mph27.4 kmh 30.63 in1037.3 mb 0.00 in0.0 mm 0.00 in0.0 mm 0.00 in0.0 mm
09:58 AM 25.4°F-3.7°C 7.5°F-13.6°C 46% 10.0 mph NW16.1 kmh NW 17.0 mph27.4 kmh 30.63 in1037.3 mb 0.00 in0.0 mm 0.00 in0.0 mm 0.00 in0.0 mm
10:00 AM 25.5°F-3.6°C 8.1°F-13.3°C 47% 4.0 mph NNE6.4 kmh NNE 17.0 mph27.4 kmh 30.63 in1037.3 mb 0.00 in0.0 mm 0.00 in0.0 mm 0.00 in0.0 mm
10:02 AM 25.5°F-3.6°C 7.6°F-13.6°C 46% 11.0 mph N17.7 kmh N 17.0 mph27.4 kmh 30.63 in1037.3 mb 0.00 in0.0 mm 0.00 in0.0 mm 0.00 in0.0 mm
10:04 AM 25.6°F-3.6°C 7.7°F-13.5°C 46% 6.0 mph NNW9.7 kmh NNW 13.0 mph20.9 kmh 30.63 in1037.3 mb 0.00 in0.0 mm 0.00 in0.0 mm 0.00 in0.0 mm
10:06 AM 25.7°F-3.5°C 7.8°F-13.4°C 46% 11.0 mph NW17.7 kmh NW 14.0 mph22.5 kmh 30.63 in1037.3 mb 0.00 in0.0 mm 0.00 in0.0 mm 0.00 in0.0 mm
10:08 AM 25.9°F-3.4°C 8.0°F-13.3°C 46% 8.0 mph NNE12.9 kmh NNE 14.0 mph22.5 kmh 30.63 in1037.3 mb 0.00 in0.0 mm 0.00 in0.0 mm 0.00 in0.0 mm
10:10 AM 26.0°F-3.3°C 7.6°F-13.6°C 45% 9.0 mph NE14.5 kmh NE 15.0 mph24.1 kmh 30.63 in1037.3 mb 0.00 in0.0 mm 0.00 in0.0 mm 0.00 in0.0 mm
10:12 AM 26.1°F-3.3°C 7.2°F-13.8°C 44% 4.0 mph NE6.4 kmh NE 17.0 mph27.4 kmh 30.63 in1037.3 mb 0.00 in0.0 mm 0.00 in0.0 mm 0.00 in0.0 mm
10:14 AM 26.2°F-3.2°C 7.3°F-13.7°C 44% 10.0 mph NW16.1 kmh NW 17.0 mph27.4 kmh 30.63 in1037.3 mb 0.00 in0.0 mm 0.00 in0.0 mm 0.00 in0.0 mm
10:16 AM 26.4°F-3.1°C 8.0°F-13.3°C 45% 4.0 mph N6.4 kmh N 17.0 mph27.4 kmh 30.63 in1037.3 mb 0.00 in0.0 mm 0.00 in0.0 mm 0.00 in0.0 mm
10:18 AM 26.7°F-2.9°C 7.7°F-13.5°C 44% 3.0 mph N4.8 kmh N 17.0 mph27.4 kmh 30.64 in1037.6 mb 0.00 in0.0 mm 0.00 in0.0 mm 0.00 in0.0 mm
10:20 AM 26.9°F-2.8°C 7.4°F-13.7°C 43% 7.0 mph N11.3 kmh N 17.0 mph27.4 kmh 30.63 in1037.3 mb 0.00 in0.0 mm 0.00 in0.0 mm 0.00 in0.0 mm
10:22 AM 27.1°F-2.7°C 6.5°F-14.2°C 41% 8.0 mph NNE12.9 kmh NNE 17.0 mph27.4 kmh 30.63 in1037.3 mb 0.00 in0.0 mm 0.00 in0.0 mm 0.00 in0.0 mm
10:24 AM 27.2°F-2.7°C 7.2°F-13.8°C 42% 2.0 mph NE3.2 kmh NE 17.0 mph27.4 kmh 30.63 in1037.3 mb 0.00 in0.0 mm 0.00 in0.0 mm 0.00 in0.0 mm
10:26 AM 27.2°F-2.7°C 7.7°F-13.5°C 43% 8.0 mph N12.9 kmh N 17.0 mph27.4 kmh 30.63 in1037.3 mb 0.00 in0.0 mm 0.00 in0.0 mm 0.00 in0.0 mm
10:28 AM 27.1°F-2.7°C 7.6°F-13.6°C 43% 14.0 mph NNW22.5 kmh NNW 17.0 mph27.4 kmh 30.63 in1037.3 mb 0.00 in0.0 mm 0.00 in0.0 mm 0.00 in0.0 mm
10:30 AM 26.9°F-2.8°C 7.4°F-13.7°C 43% 9.0 mph N14.5 kmh N 17.0 mph27.4 kmh 30.62 in1036.9 mb 0.00 in0.0 mm 0.00 in0.0 mm 0.00 in0.0 mm
10:32 AM 27.2°F-2.7°C 7.7°F-13.5°C 43% 8.0 mph N12.9 kmh N 17.0 mph27.4 kmh 30.63 in1037.3 mb 0.00 in0.0 mm 0.00 in0.0 mm 0.00 in0.0 mm
10:34 AM 27.3°F-2.6°C 7.3°F-13.7°C 42% 10.0 mph N16.1 kmh N 13.0 mph20.9 kmh 30.63 in1037.3 mb 0.00 in0.0 mm 0.00 in0.0 mm 0.00 in0.0 mm
10:36 AM 27.3°F-2.6°C 7.3°F-13.7°C 42% 7.0 mph NE11.3 kmh NE 13.0 mph20.9 kmh 30.63 in1037.3 mb 0.00 in0.0 mm 0.00 in0.0 mm 0.00 in0.0 mm
10:38 AM 27.5°F-2.5°C 7.4°F-13.7°C 42% 8.0 mph N12.9 kmh N 13.0 mph20.9 kmh 30.63 in1037.3 mb 0.00 in0.0 mm 0.00 in0.0 mm 0.00 in0.0 mm
10:40 AM 27.7°F-2.4°C 7.6°F-13.6°C 42% 9.0 mph NNW14.5 kmh NNW 13.0 mph20.9 kmh 30.63 in1037.3 mb 0.00 in0.0 mm 0.00 in0.0 mm 0.00 in0.0 mm
10:42 AM 27.7°F-2.4°C 8.1°F-13.3°C 43% 8.0 mph NW12.9 kmh NW 13.0 mph20.9 kmh 30.63 in1037.3 mb 0.00 in0.0 mm 0.00 in0.0 mm 0.00 in0.0 mm
10:44 AM 27.8°F-2.3°C 7.7°F-13.5°C 42% 4.0 mph N6.4 kmh N 13.0 mph20.9 kmh 30.63 in1037.3 mb 0.00 in0.0 mm 0.00 in0.0 mm 0.00 in0.0 mm
10:46 AM 27.8°F-2.3°C 7.7°F-13.5°C 42% 10.0 mph NW16.1 kmh NW 18.0 mph29.0 kmh 30.63 in1037.3 mb 0.00 in0.0 mm 0.00 in0.0 mm 0.00 in0.0 mm
10:48 AM 27.7°F-2.4°C 8.1°F-13.3°C 43% 2.0 mph N3.2 kmh N 18.0 mph29.0 kmh 30.63 in1037.3 mb 0.00 in0.0 mm 0.00 in0.0 mm 0.00 in0.0 mm
10:50 AM 27.7°F-2.4°C 8.1°F-13.3°C 43% 13.0 mph WNW20.9 kmh WNW 18.0 mph29.0 kmh 30.63 in1037.3 mb 0.00 in0.0 mm 0.00 in0.0 mm 0.00 in0.0 mm
10:52 AM 27.5°F-2.5°C 8.0°F-13.3°C 43% 11.0 mph NNW17.7 kmh NNW 18.0 mph29.0 kmh 30.62 in1036.9 mb 0.00 in0.0 mm 0.00 in0.0 mm 0.00 in0.0 mm
10:54 AM 27.6°F-2.4°C 8.0°F-13.3°C 43% 10.0 mph NNW16.1 kmh NNW 18.0 mph29.0 kmh 30.62 in1036.9 mb 0.00 in0.0 mm 0.00 in0.0 mm 0.00 in0.0 mm
10:56 AM 27.7°F-2.4°C 7.6°F-13.6°C 42% 5.0 mph N8.0 kmh N 18.0 mph29.0 kmh 30.63 in1037.3 mb 0.00 in0.0 mm 0.00 in0.0 mm 0.00 in0.0 mm
10:58 AM 27.7°F-2.4°C 6.5°F-14.2°C 40% 11.0 mph NW17.7 kmh NW 18.0 mph29.0 kmh 30.63 in1037.3 mb 0.00 in0.0 mm 0.00 in0.0 mm 0.00 in0.0 mm
11:00 AM 27.7°F-2.4°C 7.1°F-13.8°C 41% 9.0 mph N14.5 kmh N 18.0 mph29.0 kmh 30.62 in1036.9 mb 0.00 in0.0 mm 0.00 in0.0 mm 0.00 in0.0 mm
11:02 AM 27.7°F-2.4°C 7.6°F-13.6°C 42% 11.0 mph N17.7 kmh N 17.0 mph27.4 kmh 30.62 in1036.9 mb 0.00 in0.0 mm 0.00 in0.0 mm 0.00 in0.0 mm
11:04 AM 27.7°F-2.4°C 7.1°F-13.8°C 41% 13.0 mph NW20.9 kmh NW 17.0 mph27.4 kmh 30.62 in1036.9 mb 0.00 in0.0 mm 0.00 in0.0 mm 0.00 in0.0 mm
11:06 AM 27.7°F-2.4°C 7.1°F-13.8°C 41% 14.0 mph NNW22.5 kmh NNW 17.0 mph27.4 kmh 30.62 in1036.9 mb 0.00 in0.0 mm 0.00 in0.0 mm 0.00 in0.0 mm
11:08 AM 27.6°F-2.4°C 7.0°F-13.9°C 41% 10.0 mph NE16.1 kmh NE 19.0 mph30.6 kmh 30.62 in1036.9 mb 0.00 in0.0 mm 0.00 in0.0 mm 0.00 in0.0 mm
11:10 AM 27.7°F-2.4°C 7.1°F-13.8°C 41% 4.0 mph N6.4 kmh N 19.0 mph30.6 kmh 30.62 in1036.9 mb 0.00 in0.0 mm 0.00 in0.0 mm 0.00 in0.0 mm
11:12 AM 27.9°F-2.3°C 7.3°F-13.7°C 41% 8.0 mph NNW12.9 kmh NNW 19.0 mph30.6 kmh 30.62 in1036.9 mb 0.00 in0.0 mm 0.00 in0.0 mm 0.00 in0.0 mm
11:14 AM 28.0°F-2.2°C 7.4°F-13.7°C 41% 8.0 mph N12.9 kmh N 19.0 mph30.6 kmh 30.62 in1036.9 mb 0.00 in0.0 mm 0.00 in0.0 mm 0.00 in0.0 mm
11:16 AM 28.2°F-2.1°C 7.5°F-13.6°C 41% 5.0 mph NNW8.0 kmh NNW 19.0 mph30.6 kmh 30.62 in1036.9 mb 0.00 in0.0 mm 0.00 in0.0 mm 0.00 in0.0 mm
11:18 AM 28.5°F-1.9°C 7.8°F-13.4°C 41% 5.0 mph NW8.0 kmh NW 19.0 mph30.6 kmh 30.62 in1036.9 mb 0.00 in0.0 mm 0.00 in0.0 mm 0.00 in0.0 mm
11:20 AM 28.6°F-1.9°C 7.9°F-13.4°C 41% 6.0 mph NNW9.7 kmh NNW 19.0 mph30.6 kmh 30.61 in1036.6 mb 0.00 in0.0 mm 0.00 in0.0 mm 0.00 in0.0 mm
11:22 AM 28.7°F-1.8°C 8.0°F-13.3°C 41% 12.0 mph N19.3 kmh N 19.0 mph30.6 kmh 30.61 in1036.6 mb 0.00 in0.0 mm 0.00 in0.0 mm 0.00 in0.0 mm
11:24 AM 28.5°F-1.9°C 7.3°F-13.7°C 40% 11.0 mph NW17.7 kmh NW 19.0 mph30.6 kmh 30.61 in1036.6 mb 0.00 in0.0 mm 0.00 in0.0 mm 0.00 in0.0 mm
11:26 AM 28.6°F-1.9°C 7.9°F-13.4°C 41% 10.0 mph NW16.1 kmh NW 19.0 mph30.6 kmh 30.61 in1036.6 mb 0.00 in0.0 mm 0.00 in0.0 mm 0.00 in0.0 mm
11:28 AM 28.8°F-1.8°C 7.5°F-13.6°C 40% 14.0 mph N22.5 kmh N 19.0 mph30.6 kmh 30.61 in1036.6 mb 0.00 in0.0 mm 0.00 in0.0 mm 0.00 in0.0 mm
11:29 AM 28.9°F-1.7°C 7.6°F-13.6°C 40% 8.0 mph ENE12.9 kmh ENE 19.0 mph30.6 kmh 30.61 in1036.6 mb 0.00 in0.0 mm 0.00 in0.0 mm 0.00 in0.0 mm
11:32 AM 29.1°F-1.6°C 7.8°F-13.4°C 40% 3.0 mph NE4.8 kmh NE 19.0 mph30.6 kmh 30.61 in1036.6 mb 0.00 in0.0 mm 0.00 in0.0 mm 0.00 in0.0 mm
11:34 AM 29.3°F-1.5°C 8.0°F-13.3°C 40% 6.0 mph NNW9.7 kmh NNW 9.0 mph14.5 kmh 30.61 in1036.6 mb 0.00 in0.0 mm 0.00 in0.0 mm 0.00 in0.0 mm
11:36 AM 29.6°F-1.3°C 8.3°F-13.2°C 40% 3.0 mph NW4.8 kmh NW 13.0 mph20.9 kmh 30.61 in1036.6 mb 0.00 in0.0 mm 0.00 in0.0 mm 0.00 in0.0 mm
11:38 AM 29.8°F-1.2°C 7.9°F-13.4°C 39% 5.0 mph N8.0 kmh N 13.0 mph20.9 kmh 30.61 in1036.6 mb 0.00 in0.0 mm 0.00 in0.0 mm 0.00 in0.0 mm
11:40 AM 30.1°F-1.1°C 7.6°F-13.6°C 38% 9.0 mph NE14.5 kmh NE 13.0 mph20.9 kmh 30.60 in1036.2 mb 0.00 in0.0 mm 0.00 in0.0 mm 0.00 in0.0 mm
11:42 AM 30.2°F-1.0°C 7.7°F-13.5°C 38% 9.0 mph NNW14.5 kmh NNW 13.0 mph20.9 kmh 30.60 in1036.2 mb 0.00 in0.0 mm 0.00 in0.0 mm 0.00 in0.0 mm
11:44 AM 30.2°F-1.0°C 8.2°F-13.2°C 39% 12.0 mph NNW19.3 kmh NNW 13.0 mph20.9 kmh 30.60 in1036.2 mb 0.00 in0.0 mm 0.00 in0.0 mm 0.00 in0.0 mm
11:46 AM 30.2°F-1.0°C 8.2°F-13.2°C 39% 9.0 mph NNW14.5 kmh NNW 13.0 mph20.9 kmh 30.60 in1036.2 mb 0.00 in0.0 mm 0.00 in0.0 mm 0.00 in0.0 mm
11:48 AM 30.1°F-1.1°C 8.2°F-13.2°C 39% 4.0 mph NNW6.4 kmh NNW 13.0 mph20.9 kmh 30.59 in1035.9 mb 0.00 in0.0 mm 0.00 in0.0 mm 0.00 in0.0 mm
11:50 AM 30.1°F-1.1°C 8.7°F-12.9°C 40% 2.0 mph ENE3.2 kmh ENE 13.0 mph20.9 kmh 30.59 in1035.9 mb 0.00 in0.0 mm 0.00 in0.0 mm 0.00 in0.0 mm
11:52 AM 30.4°F-0.9°C 9.0°F-12.8°C 40% 10.0 mph N16.1 kmh N 15.0 mph24.1 kmh 30.59 in1035.9 mb 0.00 in0.0 mm 0.00 in0.0 mm 0.00 in0.0 mm
11:54 AM 30.4°F-0.9°C 9.0°F-12.8°C 40% 3.0 mph NNE4.8 kmh NNE 15.0 mph24.1 kmh 30.59 in1035.9 mb 0.00 in0.0 mm 0.00 in0.0 mm 0.00 in0.0 mm
11:56 AM 30.7°F-0.7°C 8.7°F-12.9°C 39% 3.0 mph NNW4.8 kmh NNW 15.0 mph24.1 kmh 30.59 in1035.9 mb 0.00 in0.0 mm 0.00 in0.0 mm 0.00 in0.0 mm
11:58 AM 30.9°F-0.6°C 8.3°F-13.2°C 38% 15.0 mph NNW24.1 kmh NNW 16.0 mph25.7 kmh 30.58 in1035.6 mb 0.00 in0.0 mm 0.00 in0.0 mm 0.00 in0.0 mm
12:00 PM 31.0°F-0.6°C 9.0°F-12.8°C 39% 4.0 mph N6.4 kmh N 16.0 mph25.7 kmh 30.58 in1035.6 mb 0.00 in0.0 mm 0.00 in0.0 mm 0.00 in0.0 mm
12:02 PM 31.4°F-0.3°C 9.3°F-12.6°C 39% 10.0 mph N16.1 kmh N 16.0 mph25.7 kmh 30.58 in1035.6 mb 0.00 in0.0 mm 0.00 in0.0 mm 0.00 in0.0 mm
12:04 PM 31.7°F-0.2°C 8.4°F-13.1°C 37% 11.0 mph NW17.7 kmh NW 13.0 mph20.9 kmh 30.58 in1035.6 mb 0.00 in0.0 mm 0.00 in0.0 mm 0.00 in0.0 mm
12:06 PM 31.6°F-0.2°C 8.3°F-13.2°C 37% 5.0 mph N8.0 kmh N 15.0 mph24.1 kmh 30.58 in1035.6 mb 0.00 in0.0 mm 0.00 in0.0 mm 0.00 in0.0 mm
12:08 PM 31.6°F-0.2°C 8.3°F-13.2°C 37% 15.0 mph NW24.1 kmh NW 15.0 mph24.1 kmh 30.58 in1035.6 mb 0.00 in0.0 mm 0.00 in0.0 mm 0.00 in0.0 mm
12:10 PM 31.5°F-0.3°C 8.2°F-13.2°C 37% 5.0 mph NNE8.0 kmh NNE 15.0 mph24.1 kmh 30.58 in1035.6 mb 0.00 in0.0 mm 0.00 in0.0 mm 0.00 in0.0 mm
12:12 PM 31.5°F-0.3°C 8.8°F-12.9°C 38% 4.0 mph NE6.4 kmh NE 15.0 mph24.1 kmh 30.58 in1035.6 mb 0.00 in0.0 mm 0.00 in0.0 mm 0.00 in0.0 mm
12:14 PM 31.9°F-0.1°C 9.2°F-12.7°C 38% 6.0 mph NNW9.7 kmh NNW 15.0 mph24.1 kmh 30.58 in1035.6 mb 0.00 in0.0 mm 0.00 in0.0 mm 0.00 in0.0 mm
12:16 PM 32.3°F0.2°C 9.6°F-12.4°C 38% 13.0 mph NNE20.9 kmh NNE 15.0 mph24.1 kmh 30.58 in1035.6 mb 0.00 in0.0 mm 0.00 in0.0 mm 0.00 in0.0 mm
12:18 PM 32.5°F0.3°C 9.1°F-12.7°C 37% 5.0 mph NNE8.0 kmh NNE 15.0 mph24.1 kmh 30.58 in1035.6 mb 0.00 in0.0 mm 0.00 in0.0 mm 0.00 in0.0 mm
12:20 PM 32.5°F0.3°C 8.5°F-13.1°C 36% 12.0 mph NNW19.3 kmh NNW 15.0 mph24.1 kmh 30.57 in1035.2 mb 0.00 in0.0 mm 0.00 in0.0 mm 0.00 in0.0 mm
12:22 PM 32.4°F0.2°C 8.4°F-13.1°C 36% 10.0 mph N16.1 kmh N 15.0 mph24.1 kmh 30.57 in1035.2 mb 0.00 in0.0 mm 0.00 in0.0 mm 0.00 in0.0 mm
12:24 PM 32.5°F0.3°C 7.9°F-13.4°C 35% 14.0 mph NNW22.5 kmh NNW 16.0 mph25.7 kmh 30.57 in1035.2 mb 0.00 in0.0 mm 0.00 in0.0 mm 0.00 in0.0 mm
12:26 PM 32.4°F0.2°C 8.4°F-13.1°C 36% 6.0 mph N9.7 kmh N 17.0 mph27.4 kmh 30.56 in1034.9 mb 0.00 in0.0 mm 0.00 in0.0 mm 0.00 in0.0 mm
12:28 PM 32.4°F0.2°C 8.4°F-13.1°C 36% 5.0 mph NNE8.0 kmh NNE 17.0 mph27.4 kmh 30.57 in1035.2 mb 0.00 in0.0 mm 0.00 in0.0 mm 0.00 in0.0 mm
12:30 PM 32.5°F0.3°C 9.1°F-12.7°C 37% 8.0 mph N12.9 kmh N 17.0 mph27.4 kmh 30.56 in1034.9 mb 0.00 in0.0 mm 0.00 in0.0 mm 0.00 in0.0 mm
12:32 PM 32.6°F0.3°C 9.2°F-12.7°C 37% 9.0 mph N14.5 kmh N 11.0 mph17.7 kmh 30.56 in1034.9 mb 0.00 in0.0 mm 0.00 in0.0 mm 0.00 in0.0 mm
12:34 PM 32.7°F0.4°C 9.3°F-12.6°C 37% 10.0 mph NNW16.1 kmh NNW 19.0 mph30.6 kmh 30.56 in1034.9 mb 0.00 in0.0 mm 0.00 in0.0 mm 0.00 in0.0 mm
12:36 PM 32.6°F0.3°C 8.6°F-13.0°C 36% 11.0 mph NE17.7 kmh NE 19.0 mph30.6 kmh 30.56 in1034.9 mb 0.00 in0.0 mm 0.00 in0.0 mm 0.00 in0.0 mm
12:38 PM 32.7°F0.4°C 9.3°F-12.6°C 37% 6.0 mph NNW9.7 kmh NNW 19.0 mph30.6 kmh 30.56 in1034.9 mb 0.00 in0.0 mm 0.00 in0.0 mm 0.00 in0.0 mm
12:40 PM 32.8°F0.4°C 9.4°F-12.6°C 37% 6.0 mph N9.7 kmh N 19.0 mph30.6 kmh 30.56 in1034.9 mb 0.00 in0.0 mm 0.00 in0.0 mm 0.00 in0.0 mm
12:42 PM 32.9°F0.5°C 9.5°F-12.5°C 37% 3.0 mph NNE4.8 kmh NNE 19.0 mph30.6 kmh 30.56 in1034.9 mb 0.00 in0.0 mm 0.00 in0.0 mm 0.00 in0.0 mm
12:44 PM 33.1°F0.6°C 9.7°F-12.4°C 37% 4.0 mph N6.4 kmh N 19.0 mph30.6 kmh 30.56 in1034.9 mb 0.00 in0.0 mm 0.00 in0.0 mm 0.00 in0.0 mm
12:46 PM 33.4°F0.8°C 9.9°F-12.3°C 37% 3.0 mph WSW4.8 kmh WSW 19.0 mph30.6 kmh 30.55 in1034.5 mb 0.00 in0.0 mm 0.00 in0.0 mm 0.00 in0.0 mm
12:48 PM 33.6°F0.9°C 9.5°F-12.5°C 36% 10.0 mph NW16.1 kmh NW 19.0 mph30.6 kmh 30.56 in1034.9 mb 0.00 in0.0 mm 0.00 in0.0 mm 0.00 in0.0 mm
12:50 PM 33.5°F0.8°C 9.4°F-12.6°C 36% 4.0 mph N6.4 kmh N 19.0 mph30.6 kmh 30.55 in1034.5 mb 0.00 in0.0 mm 0.00 in0.0 mm 0.00 in0.0 mm
12:52 PM 33.5°F0.8°C 9.4°F-12.6°C 36% 12.0 mph NNW19.3 kmh NNW 19.0 mph30.6 kmh 30.55 in1034.5 mb 0.00 in0.0 mm 0.00 in0.0 mm 0.00 in0.0 mm
12:54 PM 33.5°F0.8°C 9.4°F-12.6°C 36% 3.0 mph N4.8 kmh N 19.0 mph30.6 kmh 30.55 in1034.5 mb 0.00 in0.0 mm 0.00 in0.0 mm 0.00 in0.0 mm
12:56 PM 33.6°F0.9°C 9.5°F-12.5°C 36% 12.0 mph NW19.3 kmh NW 19.0 mph30.6 kmh 30.55 in1034.5 mb 0.00 in0.0 mm 0.00 in0.0 mm 0.00 in0.0 mm
12:58 PM 33.5°F0.8°C 8.8°F-12.9°C 35% 16.0 mph NNW25.7 kmh NNW 19.0 mph30.6 kmh 30.55 in1034.5 mb 0.00 in0.0 mm 0.00 in0.0 mm 0.00 in0.0 mm
01:00 PM 33.3°F0.7°C 9.2°F-12.7°C 36% 11.0 mph WNW17.7 kmh WNW 19.0 mph30.6 kmh 30.55 in1034.5 mb 0.00 in0.0 mm 0.00 in0.0 mm 0.00 in0.0 mm
01:02 PM 33.1°F0.6°C 9.1°F-12.7°C 36% 10.0 mph NW16.1 kmh NW 19.0 mph30.6 kmh 30.54 in1034.2 mb 0.00 in0.0 mm 0.00 in0.0 mm 0.00 in0.0 mm
01:04 PM 32.9°F0.5°C 8.9°F-12.8°C 36% 4.0 mph NW6.4 kmh NW 11.0 mph17.7 kmh 30.54 in1034.2 mb 0.00 in0.0 mm 0.00 in0.0 mm 0.00 in0.0 mm
01:06 PM 33.0°F0.6°C 9.0°F-12.8°C 36% 11.0 mph NNW17.7 kmh NNW 18.0 mph29.0 kmh 30.54 in1034.2 mb 0.00 in0.0 mm 0.00 in0.0 mm 0.00 in0.0 mm
01:08 PM 33.1°F0.6°C 9.1°F-12.7°C 36% 2.0 mph NNW3.2 kmh NNW 18.0 mph29.0 kmh 30.54 in1034.2 mb 0.00 in0.0 mm 0.00 in0.0 mm 0.00 in0.0 mm
01:10 PM 33.4°F0.8°C 9.3°F-12.6°C 36% 6.0 mph NNW9.7 kmh NNW 18.0 mph29.0 kmh 30.54 in1034.2 mb 0.00 in0.0 mm 0.00 in0.0 mm 0.00 in0.0 mm
01:12 PM 33.7°F0.9°C 9.6°F-12.4°C 36% 2.0 mph N3.2 kmh N 18.0 mph29.0 kmh 30.54 in1034.2 mb 0.00 in0.0 mm 0.00 in0.0 mm 0.00 in0.0 mm
01:14 PM 34.1°F1.2°C 10.6°F-11.9°C 37% 12.0 mph NNW19.3 kmh NNW 18.0 mph29.0 kmh 30.54 in1034.2 mb 0.00 in0.0 mm 0.00 in0.0 mm 0.00 in0.0 mm
01:16 PM 34.1°F1.2°C 9.3°F-12.6°C 35% 4.0 mph NNW6.4 kmh NNW 18.0 mph29.0 kmh 30.54 in1034.2 mb 0.00 in0.0 mm 0.00 in0.0 mm 0.00 in0.0 mm
01:18 PM 34.0°F1.1°C 9.2°F-12.7°C 35% 9.0 mph N14.5 kmh N 18.0 mph29.0 kmh 30.53 in1033.9 mb 0.00 in0.0 mm 0.00 in0.0 mm 0.00 in0.0 mm
01:20 PM 34.0°F1.1°C 9.2°F-12.7°C 35% 1.0 mph NNE1.6 kmh NNE 18.0 mph29.0 kmh 30.53 in1033.9 mb 0.00 in0.0 mm 0.00 in0.0 mm 0.00 in0.0 mm
01:22 PM 34.3°F1.3°C 9.5°F-12.5°C 35% 2.0 mph NW3.2 kmh NW 18.0 mph29.0 kmh 30.53 in1033.9 mb 0.00 in0.0 mm 0.00 in0.0 mm 0.00 in0.0 mm
01:24 PM 34.4°F1.3°C 9.6°F-12.4°C 35% 8.0 mph NW12.9 kmh NW 18.0 mph29.0 kmh 30.53 in1033.9 mb 0.00 in0.0 mm 0.00 in0.0 mm 0.00 in0.0 mm
01:26 PM 34.5°F1.4°C 10.3°F-12.1°C 36% 2.0 mph NNE3.2 kmh NNE 18.0 mph29.0 kmh 30.53 in1033.9 mb 0.00 in0.0 mm 0.00 in0.0 mm 0.00 in0.0 mm
01:28 PM 34.8°F1.6°C 10.0°F-12.2°C 35% 3.0 mph NE4.8 kmh NE 18.0 mph29.0 kmh 30.53 in1033.9 mb 0.00 in0.0 mm 0.00 in0.0 mm 0.00 in0.0 mm
01:30 PM 35.0°F1.7°C 10.1°F-12.2°C 35% 5.0 mph NNW8.0 kmh NNW 18.0 mph29.0 kmh 30.53 in1033.9 mb 0.00 in0.0 mm 0.00 in0.0 mm 0.00 in0.0 mm
01:32 PM 35.2°F1.8°C 10.3°F-12.1°C 35% 5.0 mph WNW8.0 kmh WNW 18.0 mph29.0 kmh 30.52 in1033.5 mb 0.00 in0.0 mm 0.00 in0.0 mm 0.00 in0.0 mm
01:34 PM 35.0°F1.7°C 9.5°F-12.5°C 34% 12.0 mph N19.3 kmh N 13.0 mph20.9 kmh 30.52 in1033.5 mb 0.00 in0.0 mm 0.00 in0.0 mm 0.00 in0.0 mm
01:36 PM 34.8°F1.6°C 9.3°F-12.6°C 34% 4.0 mph N6.4 kmh N 13.0 mph20.9 kmh 30.52 in1033.5 mb 0.00 in0.0 mm 0.00 in0.0 mm 0.00 in0.0 mm
01:38 PM 34.7°F1.5°C 9.2°F-12.7°C 34% 5.0 mph NNE8.0 kmh NNE 13.0 mph20.9 kmh 30.52 in1033.5 mb 0.00 in0.0 mm 0.00 in0.0 mm 0.00 in0.0 mm
01:40 PM 34.8°F1.6°C 10.0°F-12.2°C 35% 9.0 mph N14.5 kmh N 13.0 mph20.9 kmh 30.53 in1033.9 mb 0.00 in0.0 mm 0.00 in0.0 mm 0.00 in0.0 mm
01:42 PM 34.8°F1.6°C 10.0°F-12.2°C 35% 4.0 mph N6.4 kmh N 13.0 mph20.9 kmh 30.52 in1033.5 mb 0.00 in0.0 mm 0.00 in0.0 mm 0.00 in0.0 mm
01:44 PM 34.7°F1.5°C 9.9°F-12.3°C 35% 5.0 mph NW8.0 kmh NW 13.0 mph20.9 kmh 30.52 in1033.5 mb 0.00 in0.0 mm 0.00 in0.0 mm 0.00 in0.0 mm
01:46 PM 34.7°F1.5°C 9.9°F-12.3°C 35% 9.0 mph N14.5 kmh N 13.0 mph20.9 kmh 30.52 in1033.5 mb 0.00 in0.0 mm 0.00 in0.0 mm 0.00 in0.0 mm
01:48 PM 34.8°F1.6°C 10.6°F-11.9°C 36% 9.0 mph N14.5 kmh N 13.0 mph20.9 kmh 30.52 in1033.5 mb 0.00 in0.0 mm 0.00 in0.0 mm 0.00 in0.0 mm
01:50 PM 34.8°F1.6°C 10.0°F-12.2°C 35% 8.0 mph NW12.9 kmh NW 13.0 mph20.9 kmh 30.51 in1033.2 mb 0.00 in0.0 mm 0.00 in0.0 mm 0.00 in0.0 mm
01:52 PM 34.6°F1.4°C 9.8°F-12.3°C 35% 6.0 mph NNW9.7 kmh NNW 14.0 mph22.5 kmh 30.51 in1033.2 mb 0.00 in0.0 mm 0.00 in0.0 mm 0.00 in0.0 mm
01:54 PM 34.6°F1.4°C 10.4°F-12.0°C 36% 4.0 mph N6.4 kmh N 14.0 mph22.5 kmh 30.51 in1033.2 mb 0.00 in0.0 mm 0.00 in0.0 mm 0.00 in0.0 mm
01:56 PM 34.8°F1.6°C 10.0°F-12.2°C 35% 8.0 mph NNE12.9 kmh NNE 14.0 mph22.5 kmh 30.51 in1033.2 mb 0.00 in0.0 mm 0.00 in0.0 mm 0.00 in0.0 mm
01:58 PM 35.0°F1.7°C 10.1°F-12.2°C 35% 3.0 mph N4.8 kmh N 14.0 mph22.5 kmh 30.51 in1033.2 mb 0.00 in0.0 mm 0.00 in0.0 mm 0.00 in0.0 mm
02:00 PM 35.3°F1.8°C 10.4°F-12.0°C 35% 9.0 mph NW14.5 kmh NW 14.0 mph22.5 kmh 30.51 in1033.2 mb 0.00 in0.0 mm 0.00 in0.0 mm 0.00 in0.0 mm
02:02 PM 35.5°F1.9°C 10.6°F-11.9°C 35% 9.0 mph NNW14.5 kmh NNW 14.0 mph22.5 kmh 30.51 in1033.2 mb 0.00 in0.0 mm 0.00 in0.0 mm 0.00 in0.0 mm
02:04 PM 35.6°F2.0°C 10.0°F-12.2°C 34% 3.0 mph N4.8 kmh N 9.0 mph14.5 kmh 30.51 in1033.2 mb 0.00 in0.0 mm 0.00 in0.0 mm 0.00 in0.0 mm
02:06 PM 35.8°F2.1°C 10.8°F-11.8°C 35% 6.0 mph N9.7 kmh N 9.0 mph14.5 kmh 30.51 in1033.2 mb 0.00 in0.0 mm 0.00 in0.0 mm 0.00 in0.0 mm
02:08 PM 36.1°F2.3°C 9.8°F-12.3°C 33% 9.0 mph NNW14.5 kmh NNW 10.0 mph16.1 kmh 30.50 in1032.8 mb 0.00 in0.0 mm 0.00 in0.0 mm 0.00 in0.0 mm
02:10 PM 35.9°F2.2°C 9.6°F-12.4°C 33% 10.0 mph NNW16.1 kmh NNW 12.0 mph19.3 kmh 30.50 in1032.8 mb 0.00 in0.0 mm 0.00 in0.0 mm 0.00 in0.0 mm
02:12 PM 35.7°F2.1°C 10.1°F-12.2°C 34% 3.0 mph N4.8 kmh N 12.0 mph19.3 kmh 30.50 in1032.8 mb 0.00 in0.0 mm 0.00 in0.0 mm 0.00 in0.0 mm
02:14 PM 35.9°F2.2°C 10.3°F-12.1°C 34% 2.0 mph N3.2 kmh N 14.0 mph22.5 kmh 30.50 in1032.8 mb 0.00 in0.0 mm 0.00 in0.0 mm 0.00 in0.0 mm
02:16 PM 36.2°F2.3°C 10.6°F-11.9°C 34% 5.0 mph NNW8.0 kmh NNW 14.0 mph22.5 kmh 30.50 in1032.8 mb 0.00 in0.0 mm 0.00 in0.0 mm 0.00 in0.0 mm
02:18 PM 36.4°F2.4°C 10.1°F-12.2°C 33% 6.0 mph NNE9.7 kmh NNE 14.0 mph22.5 kmh 30.50 in1032.8 mb 0.00 in0.0 mm 0.00 in0.0 mm 0.00 in0.0 mm
02:20 PM 36.5°F2.5°C 10.1°F-12.2°C 33% 4.0 mph N6.4 kmh N 14.0 mph22.5 kmh 30.50 in1032.8 mb 0.00 in0.0 mm 0.00 in0.0 mm 0.00 in0.0 mm
02:22 PM 36.4°F2.4°C 10.1°F-12.2°C 33% 3.0 mph NW4.8 kmh NW 14.0 mph22.5 kmh 30.50 in1032.8 mb 0.00 in0.0 mm 0.00 in0.0 mm 0.00 in0.0 mm
02:24 PM 36.4°F2.4°C 10.1°F-12.2°C 33% 7.0 mph NW11.3 kmh NW 14.0 mph22.5 kmh 30.50 in1032.8 mb 0.00 in0.0 mm 0.00 in0.0 mm 0.00 in0.0 mm
02:26 PM 36.2°F2.3°C 9.9°F-12.3°C 33% 3.0 mph NW4.8 kmh NW 15.0 mph24.1 kmh 30.50 in1032.8 mb 0.00 in0.0 mm 0.00 in0.0 mm 0.00 in0.0 mm
02:28 PM 36.1°F2.3°C 9.8°F-12.3°C 33% 12.0 mph NW19.3 kmh NW 16.0 mph25.7 kmh 30.50 in1032.8 mb 0.00 in0.0 mm 0.00 in0.0 mm 0.00 in0.0 mm
02:30 PM 36.2°F2.3°C 9.9°F-12.3°C 33% 3.0 mph NW4.8 kmh NW 16.0 mph25.7 kmh 30.50 in1032.8 mb 0.00 in0.0 mm 0.00 in0.0 mm 0.00 in0.0 mm
02:32 PM 36.1°F2.3°C 9.8°F-12.3°C 33% 2.0 mph NE3.2 kmh NE 16.0 mph25.7 kmh 30.50 in1032.8 mb 0.00 in0.0 mm 0.00 in0.0 mm 0.00 in0.0 mm
02:34 PM 36.3°F2.4°C 10.6°F-11.9°C 34% 4.0 mph NW6.4 kmh NW 8.0 mph12.9 kmh 30.50 in1032.8 mb 0.00 in0.0 mm 0.00 in0.0 mm 0.00 in0.0 mm
02:36 PM 36.6°F2.6°C 10.9°F-11.7°C 34% 3.0 mph NW4.8 kmh NW 8.0 mph12.9 kmh 30.49 in1032.5 mb 0.00 in0.0 mm 0.00 in0.0 mm 0.00 in0.0 mm
02:38 PM 36.7°F2.6°C 11.0°F-11.7°C 34% 5.0 mph NNW8.0 kmh NNW 11.0 mph17.7 kmh 30.49 in1032.5 mb 0.00 in0.0 mm 0.00 in0.0 mm 0.00 in0.0 mm
02:40 PM 36.8°F2.7°C 10.4°F-12.0°C 33% 3.0 mph NNW4.8 kmh NNW 11.0 mph17.7 kmh 30.50 in1032.8 mb 0.00 in0.0 mm 0.00 in0.0 mm 0.00 in0.0 mm
02:42 PM 36.9°F2.7°C 11.2°F-11.6°C 34% 2.0 mph NE3.2 kmh NE 11.0 mph17.7 kmh 30.49 in1032.5 mb 0.00 in0.0 mm 0.00 in0.0 mm 0.00 in0.0 mm
02:44 PM 37.2°F2.9°C 10.8°F-11.8°C 33% 5.0 mph N8.0 kmh N 12.0 mph19.3 kmh 30.50 in1032.8 mb 0.00 in0.0 mm 0.00 in0.0 mm 0.00 in0.0 mm
02:46 PM 37.4°F3.0°C 10.3°F-12.1°C 32% 10.0 mph NW16.1 kmh NW 12.0 mph19.3 kmh 30.49 in1032.5 mb 0.00 in0.0 mm 0.00 in0.0 mm 0.00 in0.0 mm
02:48 PM 37.3°F2.9°C 10.2°F-12.1°C 32% 5.0 mph NNE8.0 kmh NNE 12.0 mph19.3 kmh 30.49 in1032.5 mb 0.00 in0.0 mm 0.00 in0.0 mm 0.00 in0.0 mm
02:50 PM 37.4°F3.0°C 10.3°F-12.1°C 32% 8.0 mph NW12.9 kmh NW 12.0 mph19.3 kmh 30.49 in1032.5 mb 0.00 in0.0 mm 0.00 in0.0 mm 0.00 in0.0 mm
02:52 PM 37.3°F2.9°C 9.5°F-12.5°C 31% 4.0 mph NW6.4 kmh NW 13.0 mph20.9 kmh 30.49 in1032.5 mb 0.00 in0.0 mm 0.00 in0.0 mm 0.00 in0.0 mm
02:54 PM 37.1°F2.8°C 9.3°F-12.6°C 31% 5.0 mph NW8.0 kmh NW 13.0 mph20.9 kmh 30.49 in1032.5 mb 0.00 in0.0 mm 0.00 in0.0 mm 0.00 in0.0 mm
02:56 PM 36.9°F2.7°C 9.8°F-12.3°C 32% 3.0 mph NNW4.8 kmh NNW 13.0 mph20.9 kmh 30.49 in1032.5 mb 0.00 in0.0 mm 0.00 in0.0 mm 0.00 in0.0 mm
02:58 PM 36.8°F2.7°C 10.4°F-12.0°C 33% 6.0 mph W9.7 kmh W 13.0 mph20.9 kmh 30.48 in1032.2 mb 0.00 in0.0 mm 0.00 in0.0 mm 0.00 in0.0 mm
03:00 PM 36.7°F2.6°C 10.3°F-12.1°C 33% 4.0 mph NNE6.4 kmh NNE 13.0 mph20.9 kmh 30.48 in1032.2 mb 0.00 in0.0 mm 0.00 in0.0 mm 0.00 in0.0 mm
03:02 PM 36.8°F2.7°C 9.7°F-12.4°C 32% 8.0 mph N12.9 kmh N 13.0 mph20.9 kmh 30.48 in1032.2 mb 0.00 in0.0 mm 0.00 in0.0 mm 0.00 in0.0 mm
03:04 PM 37.1°F2.8°C 10.7°F-11.8°C 33% 5.0 mph NW8.0 kmh NW 9.0 mph14.5 kmh 30.48 in1032.2 mb 0.00 in0.0 mm 0.00 in0.0 mm 0.00 in0.0 mm
03:06 PM 37.3°F2.9°C 10.2°F-12.1°C 32% 6.0 mph NNW9.7 kmh NNW 12.0 mph19.3 kmh 30.48 in1032.2 mb 0.00 in0.0 mm 0.00 in0.0 mm 0.00 in0.0 mm
03:08 PM 37.5°F3.1°C 10.3°F-12.1°C 32% 9.0 mph N14.5 kmh N 12.0 mph19.3 kmh 30.48 in1032.2 mb 0.00 in0.0 mm 0.00 in0.0 mm 0.00 in0.0 mm
03:10 PM 37.4°F3.0°C 9.5°F-12.5°C 31% 5.0 mph N8.0 kmh N 12.0 mph19.3 kmh 30.48 in1032.2 mb 0.00 in0.0 mm 0.00 in0.0 mm 0.00 in0.0 mm
03:12 PM 37.4°F3.0°C 10.3°F-12.1°C 32% 1.0 mph NNE1.6 kmh NNE 12.0 mph19.3 kmh 30.48 in1032.2 mb 0.00 in0.0 mm 0.00 in0.0 mm 0.00 in0.0 mm
03:14 PM 37.5°F3.1°C 10.3°F-12.1°C 32% 8.0 mph NNW12.9 kmh NNW 12.0 mph19.3 kmh 30.48 in1032.2 mb 0.00 in0.0 mm 0.00 in0.0 mm 0.00 in0.0 mm
03:16 PM 37.8°F3.2°C 10.6°F-11.9°C 32% 7.0 mph NW11.3 kmh NW 12.0 mph19.3 kmh 30.47 in1031.8 mb 0.00 in0.0 mm 0.00 in0.0 mm 0.00 in0.0 mm
03:18 PM 37.8°F3.2°C 10.6°F-11.9°C 32% 8.0 mph NW12.9 kmh NW 12.0 mph19.3 kmh 30.48 in1032.2 mb 0.00 in0.0 mm 0.00 in0.0 mm 0.00 in0.0 mm
03:20 PM 37.8°F3.2°C 9.9°F-12.3°C 31% 5.0 mph NNW8.0 kmh NNW 12.0 mph19.3 kmh 30.48 in1032.2 mb 0.00 in0.0 mm 0.00 in0.0 mm 0.00 in0.0 mm
03:22 PM 37.6°F3.1°C 9.7°F-12.4°C 31% 9.0 mph NNW14.5 kmh NNW 12.0 mph19.3 kmh 30.47 in1031.8 mb 0.00 in0.0 mm 0.00 in0.0 mm 0.00 in0.0 mm
03:24 PM 37.6°F3.1°C 10.4°F-12.0°C 32% 3.0 mph NW4.8 kmh NW 12.0 mph19.3 kmh 30.47 in1031.8 mb 0.00 in0.0 mm 0.00 in0.0 mm 0.00 in0.0 mm
03:26 PM 37.5°F3.1°C 10.3°F-12.1°C 32% 3.0 mph N4.8 kmh N 12.0 mph19.3 kmh 30.47 in1031.8 mb 0.00 in0.0 mm 0.00 in0.0 mm 0.00 in0.0 mm
03:28 PM 37.5°F3.1°C 9.6°F-12.4°C 31% 8.0 mph N12.9 kmh N 12.0 mph19.3 kmh 30.47 in1031.8 mb 0.00 in0.0 mm 0.00 in0.0 mm 0.00 in0.0 mm
03:30 PM 37.4°F3.0°C 10.3°F-12.1°C 32% 4.0 mph N6.4 kmh N 12.0 mph19.3 kmh 30.47 in1031.8 mb 0.00 in0.0 mm 0.00 in0.0 mm 0.00 in0.0 mm
03:32 PM 37.4°F3.0°C 10.3°F-12.1°C 32% 4.0 mph NW6.4 kmh NW 12.0 mph19.3 kmh 30.47 in1031.8 mb 0.00 in0.0 mm 0.00 in0.0 mm 0.00 in0.0 mm
03:34 PM 37.5°F3.1°C 10.3°F-12.1°C 32% 3.0 mph NW4.8 kmh NW 8.0 mph12.9 kmh 30.47 in1031.8 mb 0.00 in0.0 mm 0.00 in0.0 mm 0.00 in0.0 mm
03:36 PM 37.5°F3.1°C 10.3°F-12.1°C 32% 1.0 mph NW1.6 kmh NW 8.0 mph12.9 kmh 30.47 in1031.8 mb 0.00 in0.0 mm 0.00 in0.0 mm 0.00 in0.0 mm
03:38 PM 37.5°F3.1°C 10.3°F-12.1°C 32% 4.0 mph NNW6.4 kmh NNW 8.0 mph12.9 kmh 30.47 in1031.8 mb 0.00 in0.0 mm 0.00 in0.0 mm 0.00 in0.0 mm
03:40 PM 37.5°F3.1°C 10.3°F-12.1°C 32% 2.0 mph NNW3.2 kmh NNW 9.0 mph14.5 kmh 30.47 in1031.8 mb 0.00 in0.0 mm 0.00 in0.0 mm 0.00 in0.0 mm
03:42 PM 37.6°F3.1°C 10.4°F-12.0°C 32% 2.0 mph NNE3.2 kmh NNE 9.0 mph14.5 kmh 30.47 in1031.8 mb 0.00 in0.0 mm 0.00 in0.0 mm 0.00 in0.0 mm
03:44 PM 37.6°F3.1°C 10.4°F-12.0°C 32% 4.0 mph N6.4 kmh N 9.0 mph14.5 kmh 30.47 in1031.8 mb 0.00 in0.0 mm 0.00 in0.0 mm 0.00 in0.0 mm
03:46 PM 37.6°F3.1°C 10.4°F-12.0°C 32% 2.0 mph NNE3.2 kmh NNE 9.0 mph14.5 kmh 30.46 in1031.5 mb 0.00 in0.0 mm 0.00 in0.0 mm 0.00 in0.0 mm
03:48 PM 37.6°F3.1°C 10.4°F-12.0°C 32% 8.0 mph N12.9 kmh N 9.0 mph14.5 kmh 30.47 in1031.8 mb 0.00 in0.0 mm 0.00 in0.0 mm 0.00 in0.0 mm
03:50 PM 37.4°F3.0°C 10.3°F-12.1°C 32% 4.0 mph NW6.4 kmh NW 10.0 mph16.1 kmh 30.46 in1031.5 mb 0.00 in0.0 mm 0.00 in0.0 mm 0.00 in0.0 mm
03:52 PM 37.3°F2.9°C 10.2°F-12.1°C 32% 5.0 mph NW8.0 kmh NW 10.0 mph16.1 kmh 30.46 in1031.5 mb 0.00 in0.0 mm 0.00 in0.0 mm 0.00 in0.0 mm
03:54 PM 37.2°F2.9°C 10.1°F-12.2°C 32% 5.0 mph N8.0 kmh N 10.0 mph16.1 kmh 30.46 in1031.5 mb 0.00 in0.0 mm 0.00 in0.0 mm 0.00 in0.0 mm
03:56 PM 37.1°F2.8°C 10.0°F-12.2°C 32% 1.0 mph N1.6 kmh N 10.0 mph16.1 kmh 30.46 in1031.5 mb 0.00 in0.0 mm 0.00 in0.0 mm 0.00 in0.0 mm
03:58 PM 37.3°F2.9°C 10.9°F-11.7°C 33% 3.0 mph NNW4.8 kmh NNW 10.0 mph16.1 kmh 30.46 in1031.5 mb 0.00 in0.0 mm 0.00 in0.0 mm 0.00 in0.0 mm
04:00 PM 37.5°F3.1°C 11.0°F-11.7°C 33% 1.0 mph N1.6 kmh N 10.0 mph16.1 kmh 30.46 in1031.5 mb 0.00 in0.0 mm 0.00 in0.0 mm 0.00 in0.0 mm
04:02 PM 37.7°F3.2°C 11.2°F-11.6°C 33% 6.0 mph NNW9.7 kmh NNW 10.0 mph16.1 kmh 30.46 in1031.5 mb 0.00 in0.0 mm 0.00 in0.0 mm 0.00 in0.0 mm
04:04 PM 37.8°F3.2°C 10.6°F-11.9°C 32% 7.0 mph NNE11.3 kmh NNE 7.0 mph11.3 kmh 30.45 in1031.2 mb 0.00 in0.0 mm 0.00 in0.0 mm 0.00 in0.0 mm
04:06 PM 37.9°F3.3°C 10.7°F-11.8°C 32% 5.0 mph NE8.0 kmh NE 7.0 mph11.3 kmh 30.46 in1031.5 mb 0.00 in0.0 mm 0.00 in0.0 mm 0.00 in0.0 mm
04:08 PM 37.8°F3.2°C 10.6°F-11.9°C 32% 2.0 mph N3.2 kmh N 7.0 mph11.3 kmh 30.45 in1031.2 mb 0.00 in0.0 mm 0.00 in0.0 mm 0.00 in0.0 mm
04:10 PM 37.8°F3.2°C 10.6°F-11.9°C 32% 2.0 mph N3.2 kmh N 7.0 mph11.3 kmh 30.45 in1031.2 mb 0.00 in0.0 mm 0.00 in0.0 mm 0.00 in0.0 mm
04:12 PM 37.8°F3.2°C 10.6°F-11.9°C 32% 2.0 mph NNW3.2 kmh NNW 7.0 mph11.3 kmh 30.45 in1031.2 mb 0.00 in0.0 mm 0.00 in0.0 mm 0.00 in0.0 mm
04:14 PM 37.8°F3.2°C 10.6°F-11.9°C 32% 4.0 mph NW6.4 kmh NW 7.0 mph11.3 kmh 30.45 in1031.2 mb 0.00 in0.0 mm 0.00 in0.0 mm 0.00 in0.0 mm
04:16 PM 37.6°F3.1°C 9.7°F-12.4°C 31% 2.0 mph NNW3.2 kmh NNW 8.0 mph12.9 kmh 30.46 in1031.5 mb 0.00 in0.0 mm 0.00 in0.0 mm 0.00 in0.0 mm
04:18 PM 37.5°F3.1°C 10.3°F-12.1°C 32% 2.0 mph NW3.2 kmh NW 8.0 mph12.9 kmh 30.46 in1031.5 mb 0.00 in0.0 mm 0.00 in0.0 mm 0.00 in0.0 mm
04:20 PM 37.4°F3.0°C 10.3°F-12.1°C 32% 4.0 mph N6.4 kmh N 8.0 mph12.9 kmh 30.46 in1031.5 mb 0.00 in0.0 mm 0.00 in0.0 mm 0.00 in0.0 mm
04:22 PM 37.3°F2.9°C 10.2°F-12.1°C 32% 1.0 mph NNW1.6 kmh NNW 8.0 mph12.9 kmh 30.45 in1031.2 mb 0.00 in0.0 mm 0.00 in0.0 mm 0.00 in0.0 mm
04:24 PM 37.4°F3.0°C 10.3°F-12.1°C 32% 3.0 mph NNW4.8 kmh NNW 8.0 mph12.9 kmh 30.46 in1031.5 mb 0.00 in0.0 mm 0.00 in0.0 mm 0.00 in0.0 mm
04:26 PM 37.4°F3.0°C 10.3°F-12.1°C 32% 3.0 mph N4.8 kmh N 8.0 mph12.9 kmh 30.46 in1031.5 mb 0.00 in0.0 mm 0.00 in0.0 mm 0.00 in0.0 mm
04:28 PM 37.4°F3.0°C 10.3°F-12.1°C 32% 1.0 mph N1.6 kmh N 8.0 mph12.9 kmh 30.46 in1031.5 mb 0.00 in0.0 mm 0.00 in0.0 mm 0.00 in0.0 mm
04:30 PM 37.4°F3.0°C 9.5°F-12.5°C 31% 5.0 mph NNW8.0 kmh NNW 8.0 mph12.9 kmh 30.46 in1031.5 mb 0.00 in0.0 mm 0.00 in0.0 mm 0.00 in0.0 mm
04:32 PM 37.3°F2.9°C 9.5°F-12.5°C 31% 4.0 mph N6.4 kmh N 4.0 mph6.4 kmh 30.46 in1031.5 mb 0.00 in0.0 mm 0.00 in0.0 mm 0.00 in0.0 mm
04:34 PM 37.1°F2.8°C 9.3°F-12.6°C 31% 4.0 mph NE6.4 kmh NE 6.0 mph9.7 kmh 30.46 in1031.5 mb 0.00 in0.0 mm 0.00 in0.0 mm 0.00 in0.0 mm
04:36 PM 37.0°F2.8°C 9.9°F-12.3°C 32% 3.0 mph NNE4.8 kmh NNE 6.0 mph9.7 kmh 30.46 in1031.5 mb 0.00 in0.0 mm 0.00 in0.0 mm 0.00 in0.0 mm
04:38 PM 37.0°F2.8°C 9.9°F-12.3°C 32% Calm Calm 6.0 mph9.7 kmh 30.46 in1031.5 mb 0.00 in0.0 mm 0.00 in0.0 mm 0.00 in0.0 mm
04:40 PM 37.0°F2.8°C 9.9°F-12.3°C 32% 3.0 mph N4.8 kmh N 6.0 mph9.7 kmh 30.46 in1031.5 mb 0.00 in0.0 mm 0.00 in0.0 mm 0.00 in0.0 mm
04:42 PM 36.9°F2.7°C 9.8°F-12.3°C 32% 3.0 mph N4.8 kmh N 6.0 mph9.7 kmh 30.46 in1031.5 mb 0.00 in0.0 mm 0.00 in0.0 mm 0.00 in0.0 mm
04:44 PM 36.9°F2.7°C 10.5°F-11.9°C 33% 3.0 mph N4.8 kmh N 6.0 mph9.7 kmh 30.45 in1031.2 mb 0.00 in0.0 mm 0.00 in0.0 mm 0.00 in0.0 mm
04:46 PM 36.8°F2.7°C 10.4°F-12.0°C 33% 5.0 mph NNW8.0 kmh NNW 6.0 mph9.7 kmh 30.45 in1031.2 mb 0.00 in0.0 mm 0.00 in0.0 mm 0.00 in0.0 mm
04:48 PM 36.8°F2.7°C 11.1°F-11.6°C 34% 2.0 mph NW3.2 kmh NW 6.0 mph9.7 kmh 30.45 in1031.2 mb 0.00 in0.0 mm 0.00 in0.0 mm 0.00 in0.0 mm
04:50 PM 36.7°F2.6°C 11.0°F-11.7°C 34% 3.0 mph NW4.8 kmh NW 6.0 mph9.7 kmh 30.45 in1031.2 mb 0.00 in0.0 mm 0.00 in0.0 mm 0.00 in0.0 mm
04:52 PM 36.7°F2.6°C 10.3°F-12.1°C 33% 2.0 mph NNW3.2 kmh NNW 6.0 mph9.7 kmh 30.45 in1031.2 mb 0.00 in0.0 mm 0.00 in0.0 mm 0.00 in0.0 mm
04:54 PM 36.7°F2.6°C 11.0°F-11.7°C 34% 2.0 mph N3.2 kmh N 6.0 mph9.7 kmh 30.45 in1031.2 mb 0.00 in0.0 mm 0.00 in0.0 mm 0.00 in0.0 mm
04:56 PM 36.6°F2.6°C 10.9°F-11.7°C 34% 3.0 mph N4.8 kmh N 6.0 mph9.7 kmh 30.45 in1031.2 mb 0.00 in0.0 mm 0.00 in0.0 mm 0.00 in0.0 mm
04:58 PM 36.6°F2.6°C 10.9°F-11.7°C 34% 1.0 mph N1.6 kmh N 6.0 mph9.7 kmh 30.45 in1031.2 mb 0.00 in0.0 mm 0.00 in0.0 mm 0.00 in0.0 mm
05:00 PM 36.5°F2.5°C 10.8°F-11.8°C 34% Calm Calm 6.0 mph9.7 kmh 30.45 in1031.2 mb 0.00 in0.0 mm 0.00 in0.0 mm 0.00 in0.0 mm
05:02 PM 36.5°F2.5°C 11.5°F-11.4°C 35% 1.0 mph N1.6 kmh N 6.0 mph9.7 kmh 30.45 in1031.2 mb 0.00 in0.0 mm 0.00 in0.0 mm 0.00 in0.0 mm
05:04 PM 36.5°F2.5°C 11.5°F-11.4°C 35% 2.0 mph N3.2 kmh N 2.0 mph3.2 kmh 30.45 in1031.2 mb 0.00 in0.0 mm 0.00 in0.0 mm 0.00 in0.0 mm
05:06 PM 36.5°F2.5°C 11.5°F-11.4°C 35% 3.0 mph NNW4.8 kmh NNW 4.0 mph6.4 kmh 30.45 in1031.2 mb 0.00 in0.0 mm 0.00 in0.0 mm 0.00 in0.0 mm
05:08 PM 36.5°F2.5°C 10.8°F-11.8°C 34% 2.0 mph NNW3.2 kmh NNW 4.0 mph6.4 kmh 30.44 in1030.8 mb 0.00 in0.0 mm 0.00 in0.0 mm 0.00 in0.0 mm
05:10 PM 36.4°F2.4°C 11.4°F-11.4°C 35% Calm Calm 4.0 mph6.4 kmh 30.44 in1030.8 mb 0.00 in0.0 mm 0.00 in0.0 mm 0.00 in0.0 mm
05:12 PM 36.4°F2.4°C 12.0°F-11.1°C 36% Calm Calm 4.0 mph6.4 kmh 30.44 in1030.8 mb 0.00 in0.0 mm 0.00 in0.0 mm 0.00 in0.0 mm
05:14 PM 36.4°F2.4°C 12.0°F-11.1°C 36% 1.0 mph NNW1.6 kmh NNW 4.0 mph6.4 kmh 30.44 in1030.8 mb 0.00 in0.0 mm 0.00 in0.0 mm 0.00 in0.0 mm
05:16 PM 36.4°F2.4°C 12.0°F-11.1°C 36% 1.0 mph NNW1.6 kmh NNW 4.0 mph6.4 kmh 30.44 in1030.8 mb 0.00 in0.0 mm 0.00 in0.0 mm 0.00 in0.0 mm
05:18 PM 36.3°F2.4°C 11.9°F-11.2°C 36% 2.0 mph N3.2 kmh N 4.0 mph6.4 kmh 30.44 in1030.8 mb 0.00 in0.0 mm 0.00 in0.0 mm 0.00 in0.0 mm
05:20 PM 36.2°F2.3°C 11.2°F-11.6°C 35% 1.0 mph N1.6 kmh N 4.0 mph6.4 kmh 30.44 in1030.8 mb 0.00 in0.0 mm 0.00 in0.0 mm 0.00 in0.0 mm
05:22 PM 36.1°F2.3°C 11.7°F-11.3°C 36% 1.0 mph N1.6 kmh N 4.0 mph6.4 kmh 30.43 in1030.5 mb 0.00 in0.0 mm 0.00 in0.0 mm 0.00 in0.0 mm
05:24 PM 36.0°F2.2°C 11.7°F-11.3°C 36% 2.0 mph N3.2 kmh N 4.0 mph6.4 kmh 30.43 in1030.5 mb 0.00 in0.0 mm 0.00 in0.0 mm 0.00 in0.0 mm
05:26 PM 36.0°F2.2°C 11.7°F-11.3°C 36% 1.0 mph N1.6 kmh N 4.0 mph6.4 kmh 30.43 in1030.5 mb 0.00 in0.0 mm 0.00 in0.0 mm 0.00 in0.0 mm
05:28 PM 35.9°F2.2°C 12.2°F-11.0°C 37% 1.0 mph N1.6 kmh N 4.0 mph6.4 kmh 30.44 in1030.8 mb 0.00 in0.0 mm 0.00 in0.0 mm 0.00 in0.0 mm
05:30 PM 35.9°F2.2°C 11.6°F-11.3°C 36% 1.0 mph N1.6 kmh N 4.0 mph6.4 kmh 30.44 in1030.8 mb 0.00 in0.0 mm 0.00 in0.0 mm 0.00 in0.0 mm
05:32 PM 35.9°F2.2°C 11.6°F-11.3°C 36% 2.0 mph N3.2 kmh N 4.0 mph6.4 kmh 30.44 in1030.8 mb 0.00 in0.0 mm 0.00 in0.0 mm 0.00 in0.0 mm
05:34 PM 35.8°F2.1°C 12.1°F-11.1°C 37% Calm Calm 1.0 mph1.6 kmh 30.44 in1030.8 mb 0.00 in0.0 mm 0.00 in0.0 mm 0.00 in0.0 mm
05:36 PM 35.7°F2.1°C 12.6°F-10.8°C 38% Calm Calm 1.0 mph1.6 kmh 30.44 in1030.8 mb 0.00 in0.0 mm 0.00 in0.0 mm 0.00 in0.0 mm
05:38 PM 35.7°F2.1°C 12.0°F-11.1°C 37% Calm Calm 2.0 mph3.2 kmh 30.44 in1030.8 mb 0.00 in0.0 mm 0.00 in0.0 mm 0.00 in0.0 mm
05:40 PM 35.6°F2.0°C 11.9°F-11.2°C 37% 2.0 mph N3.2 kmh N 3.0 mph4.8 kmh 30.44 in1030.8 mb 0.00 in0.0 mm 0.00 in0.0 mm 0.00 in0.0 mm
05:42 PM 35.5°F1.9°C 11.8°F-11.2°C 37% 1.0 mph N1.6 kmh N 3.0 mph4.8 kmh 30.44 in1030.8 mb 0.00 in0.0 mm 0.00 in0.0 mm 0.00 in0.0 mm
05:44 PM 35.6°F2.0°C 11.9°F-11.2°C 37% 2.0 mph N3.2 kmh N 3.0 mph4.8 kmh 30.44 in1030.8 mb 0.00 in0.0 mm 0.00 in0.0 mm 0.00 in0.0 mm
05:46 PM 35.4°F1.9°C 11.7°F-11.3°C 37% 2.0 mph N3.2 kmh N 3.0 mph4.8 kmh 30.44 in1030.8 mb 0.00 in0.0 mm 0.00 in0.0 mm 0.00 in0.0 mm
05:48 PM 35.4°F1.9°C 12.3°F-10.9°C 38% 1.0 mph N1.6 kmh N 3.0 mph4.8 kmh 30.44 in1030.8 mb 0.00 in0.0 mm 0.00 in0.0 mm 0.00 in0.0 mm
05:50 PM 35.3°F1.8°C 12.2°F-11.0°C 38% Calm Calm 3.0 mph4.8 kmh 30.44 in1030.8 mb 0.00 in0.0 mm 0.00 in0.0 mm 0.00 in0.0 mm
05:52 PM 35.3°F1.8°C 12.2°F-11.0°C 38% Calm Calm 3.0 mph4.8 kmh 30.44 in1030.8 mb 0.00 in0.0 mm 0.00 in0.0 mm 0.00 in0.0 mm
05:54 PM 35.3°F1.8°C 12.2°F-11.0°C 38% 1.0 mph N1.6 kmh N 3.0 mph4.8 kmh 30.44 in1030.8 mb 0.00 in0.0 mm 0.00 in0.0 mm 0.00 in0.0 mm
05:56 PM 35.1°F1.7°C 12.7°F-10.7°C 39% Calm Calm 3.0 mph4.8 kmh 30.43 in1030.5 mb 0.00 in0.0 mm 0.00 in0.0 mm 0.00 in0.0 mm
05:58 PM 35.1°F1.7°C 12.7°F-10.7°C 39% Calm Calm 3.0 mph4.8 kmh 30.43 in1030.5 mb 0.00 in0.0 mm 0.00 in0.0 mm 0.00 in0.0 mm
06:00 PM 35.1°F1.7°C 13.2°F-10.4°C 40% 2.0 mph N3.2 kmh N 3.0 mph4.8 kmh 30.43 in1030.5 mb 0.00 in0.0 mm 0.00 in0.0 mm 0.00 in0.0 mm
06:02 PM 34.9°F1.6°C 13.0°F-10.6°C 40% 1.0 mph N1.6 kmh N 3.0 mph4.8 kmh 30.44 in1030.8 mb 0.00 in0.0 mm 0.00 in0.0 mm 0.00 in0.0 mm
06:04 PM 34.9°F1.6°C 13.6°F-10.2°C 41% 1.0 mph N1.6 kmh N 1.0 mph1.6 kmh 30.43 in1030.5 mb 0.00 in0.0 mm 0.00 in0.0 mm 0.00 in0.0 mm
06:06 PM 34.8°F1.6°C 13.5°F-10.3°C 41% 1.0 mph N1.6 kmh N 2.0 mph3.2 kmh 30.43 in1030.5 mb 0.00 in0.0 mm 0.00 in0.0 mm 0.00 in0.0 mm
06:08 PM 34.7°F1.5°C 13.4°F-10.3°C 41% 2.0 mph N3.2 kmh N 3.0 mph4.8 kmh 30.43 in1030.5 mb 0.00 in0.0 mm 0.00 in0.0 mm 0.00 in0.0 mm
06:10 PM 34.7°F1.5°C 13.4°F-10.3°C 41% 2.0 mph N3.2 kmh N 3.0 mph4.8 kmh 30.43 in1030.5 mb 0.00 in0.0 mm 0.00 in0.0 mm 0.00 in0.0 mm
06:12 PM 34.7°F1.5°C 13.4°F-10.3°C 41% 3.0 mph N4.8 kmh N 3.0 mph4.8 kmh 30.43 in1030.5 mb 0.00 in0.0 mm 0.00 in0.0 mm 0.00 in0.0 mm
06:14 PM 34.7°F1.5°C 13.4°F-10.3°C 41% 2.0 mph N3.2 kmh N 3.0 mph4.8 kmh 30.43 in1030.5 mb 0.00 in0.0 mm 0.00 in0.0 mm 0.00 in0.0 mm
06:16 PM 34.6°F1.4°C 13.9°F-10.1°C 42% 2.0 mph N3.2 kmh N 3.0 mph4.8 kmh 30.43 in1030.5 mb 0.00 in0.0 mm 0.00 in0.0 mm 0.00 in0.0 mm
06:18 PM 34.6°F1.4°C 13.9°F-10.1°C 42% 2.0 mph N3.2 kmh N 3.0 mph4.8 kmh 30.43 in1030.5 mb 0.00 in0.0 mm 0.00 in0.0 mm 0.00 in0.0 mm
06:20 PM 34.6°F1.4°C 13.9°F-10.1°C 42% 1.0 mph N1.6 kmh N 3.0 mph4.8 kmh 30.43 in1030.5 mb 0.00 in0.0 mm 0.00 in0.0 mm 0.00 in0.0 mm
06:22 PM 34.5°F1.4°C 14.3°F-9.8°C 43% 1.0 mph N1.6 kmh N 3.0 mph4.8 kmh 30.43 in1030.5 mb 0.00 in0.0 mm 0.00 in0.0 mm 0.00 in0.0 mm
06:23 PM 34.4°F1.3°C 14.2°F-9.9°C 43% 1.0 mph N1.6 kmh N 3.0 mph4.8 kmh 30.43 in1030.5 mb 0.00 in0.0 mm 0.00 in0.0 mm 0.00 in0.0 mm
06:26 PM 34.4°F1.3°C 14.2°F-9.9°C 43% 1.0 mph N1.6 kmh N 3.0 mph4.8 kmh 30.43 in1030.5 mb 0.00 in0.0 mm 0.00 in0.0 mm 0.00 in0.0 mm
06:28 PM 34.3°F1.3°C 14.1°F-9.9°C 43% 1.0 mph N1.6 kmh N 3.0 mph4.8 kmh 30.43 in1030.5 mb 0.00 in0.0 mm 0.00 in0.0 mm 0.00 in0.0 mm
06:30 PM 34.3°F1.3°C 14.1°F-9.9°C 43% 2.0 mph N3.2 kmh N 3.0 mph4.8 kmh 30.43 in1030.5 mb 0.00 in0.0 mm 0.00 in0.0 mm 0.00 in0.0 mm
06:32 PM 34.2°F1.2°C 14.1°F-9.9°C 43% 2.0 mph N3.2 kmh N 3.0 mph4.8 kmh 30.43 in1030.5 mb 0.00 in0.0 mm 0.00 in0.0 mm 0.00 in0.0 mm
06:34 PM 34.2°F1.2°C 14.6°F-9.7°C 44% 2.0 mph N3.2 kmh N 2.0 mph3.2 kmh 30.43 in1030.5 mb 0.00 in0.0 mm 0.00 in0.0 mm 0.00 in0.0 mm
06:36 PM 34.2°F1.2°C 14.1°F-9.9°C 43% 3.0 mph N4.8 kmh N 3.0 mph4.8 kmh 30.43 in1030.5 mb 0.00 in0.0 mm 0.00 in0.0 mm 0.00 in0.0 mm
06:38 PM 34.2°F1.2°C 14.6°F-9.7°C 44% 2.0 mph N3.2 kmh N 3.0 mph4.8 kmh 30.43 in1030.5 mb 0.00 in0.0 mm 0.00 in0.0 mm 0.00 in0.0 mm
06:40 PM 34.1°F1.2°C 14.5°F-9.7°C 44% 1.0 mph N1.6 kmh N 3.0 mph4.8 kmh 30.43 in1030.5 mb 0.00 in0.0 mm 0.00 in0.0 mm 0.00 in0.0 mm
06:42 PM 34.1°F1.2°C 14.5°F-9.7°C 44% 1.0 mph N1.6 kmh N 3.0 mph4.8 kmh 30.43 in1030.5 mb 0.00 in0.0 mm 0.00 in0.0 mm 0.00 in0.0 mm
06:44 PM 34.1°F1.2°C 14.0°F-10.0°C 43% 1.0 mph N1.6 kmh N 3.0 mph4.8 kmh 30.43 in1030.5 mb 0.00 in0.0 mm 0.00 in0.0 mm 0.00 in0.0 mm
06:46 PM 34.0°F1.1°C 13.9°F-10.1°C 43% 2.0 mph N3.2 kmh N 3.0 mph4.8 kmh 30.43 in1030.5 mb 0.00 in0.0 mm 0.00 in0.0 mm 0.00 in0.0 mm
06:48 PM 33.9°F1.1°C 13.2°F-10.4°C 42% 2.0 mph N3.2 kmh N 3.0 mph4.8 kmh 30.42 in1030.1 mb 0.00 in0.0 mm 0.00 in0.0 mm 0.00 in0.0 mm
06:50 PM 33.9°F1.1°C 12.7°F-10.7°C 41% 1.0 mph N1.6 kmh N 3.0 mph4.8 kmh 30.43 in1030.5 mb 0.00 in0.0 mm 0.00 in0.0 mm 0.00 in0.0 mm
06:52 PM 33.9°F1.1°C 13.2°F-10.4°C 42% 2.0 mph N3.2 kmh N 3.0 mph4.8 kmh 30.43 in1030.5 mb 0.00 in0.0 mm 0.00 in0.0 mm 0.00 in0.0 mm
06:54 PM 34.0°F1.1°C 13.9°F-10.1°C 43% 2.0 mph N3.2 kmh N 3.0 mph4.8 kmh 30.43 in1030.5 mb 0.00 in0.0 mm 0.00 in0.0 mm 0.00 in0.0 mm
06:56 PM 34.0°F1.1°C 13.3°F-10.4°C 42% 2.0 mph N3.2 kmh N 3.0 mph4.8 kmh 30.43 in1030.5 mb 0.00 in0.0 mm 0.00 in0.0 mm 0.00 in0.0 mm
06:58 PM 34.0°F1.1°C 13.3°F-10.4°C 42% 3.0 mph N4.8 kmh N 3.0 mph4.8 kmh 30.43 in1030.5 mb 0.00 in0.0 mm 0.00 in0.0 mm 0.00 in0.0 mm
07:00 PM 34.1°F1.2°C 13.4°F-10.3°C 42% 2.0 mph N3.2 kmh N 3.0 mph4.8 kmh 30.43 in1030.5 mb 0.00 in0.0 mm 0.00 in0.0 mm 0.00 in0.0 mm
07:02 PM 34.1°F1.2°C 14.0°F-10.0°C 43% 1.0 mph N1.6 kmh N 3.0 mph4.8 kmh 30.43 in1030.5 mb 0.00 in0.0 mm 0.00 in0.0 mm 0.00 in0.0 mm
07:04 PM 34.0°F1.1°C 13.3°F-10.4°C 42% 1.0 mph N1.6 kmh N 1.0 mph1.6 kmh 30.43 in1030.5 mb 0.00 in0.0 mm 0.00 in0.0 mm 0.00 in0.0 mm
07:06 PM 33.9°F1.1°C 13.2°F-10.4°C 42% Calm Calm 1.0 mph1.6 kmh 30.43 in1030.5 mb 0.00 in0.0 mm 0.00 in0.0 mm 0.00 in0.0 mm
07:08 PM 33.8°F1.0°C 13.7°F-10.2°C 43% Calm Calm 1.0 mph1.6 kmh 30.43 in1030.5 mb 0.00 in0.0 mm 0.00 in0.0 mm 0.00 in0.0 mm
07:10 PM 33.8°F1.0°C 13.7°F-10.2°C 43% Calm Calm 1.0 mph1.6 kmh 30.43 in1030.5 mb 0.00 in0.0 mm 0.00 in0.0 mm 0.00 in0.0 mm
07:12 PM 33.7°F0.9°C 14.6°F-9.7°C 45% Calm Calm 1.0 mph1.6 kmh 30.43 in1030.5 mb 0.00 in0.0 mm 0.00 in0.0 mm 0.00 in0.0 mm
07:14 PM 33.5°F0.8°C 15.0°F-9.4°C 46% Calm Calm 1.0 mph1.6 kmh 30.43 in1030.5 mb 0.00 in0.0 mm 0.00 in0.0 mm 0.00 in0.0 mm
07:16 PM 33.5°F0.8°C 15.4°F-9.2°C 47% Calm Calm 1.0 mph1.6 kmh 30.43 in1030.5 mb 0.00 in0.0 mm 0.00 in0.0 mm 0.00 in0.0 mm
07:18 PM 33.3°F0.7°C 16.2°F-8.8°C 49% Calm Calm 1.0 mph1.6 kmh 30.43 in1030.5 mb 0.00 in0.0 mm 0.00 in0.0 mm 0.00 in0.0 mm
07:20 PM 33.2°F0.7°C 17.1°F-8.3°C 51% Calm Calm 1.0 mph1.6 kmh 30.43 in1030.5 mb 0.00 in0.0 mm 0.00 in0.0 mm 0.00 in0.0 mm
07:22 PM 33.1°F0.6°C 16.0°F-8.9°C 49% Calm Calm 1.0 mph1.6 kmh 30.43 in1030.5 mb 0.00 in0.0 mm 0.00 in0.0 mm 0.00 in0.0 mm
07:24 PM 33.0°F0.6°C 15.9°F-8.9°C 49% Calm Calm 1.0 mph1.6 kmh 30.43 in1030.5 mb 0.00 in0.0 mm 0.00 in0.0 mm 0.00 in0.0 mm
07:26 PM 33.0°F0.6°C 16.4°F-8.7°C 50% Calm Calm 1.0 mph1.6 kmh 30.43 in1030.5 mb 0.00 in0.0 mm 0.00 in0.0 mm 0.00 in0.0 mm
07:28 PM 32.9°F0.5°C 16.3°F-8.7°C 50% Calm Calm 1.0 mph1.6 kmh 30.43 in1030.5 mb 0.00 in0.0 mm 0.00 in0.0 mm 0.00 in0.0 mm
07:30 PM 32.9°F0.5°C 15.4°F-9.2°C 48% Calm Calm 1.0 mph1.6 kmh 30.43 in1030.5 mb 0.00 in0.0 mm 0.00 in0.0 mm 0.00 in0.0 mm
07:32 PM 32.8°F0.4°C 14.8°F-9.6°C 47% Calm Calm 1.0 mph1.6 kmh 30.43 in1030.5 mb 0.00 in0.0 mm 0.00 in0.0 mm 0.00 in0.0 mm
07:34 PM 32.8°F0.4°C 14.3°F-9.8°C 46% Calm Calm -- 30.43 in1030.5 mb 0.00 in0.0 mm 0.00 in0.0 mm 0.00 in0.0 mm
07:36 PM 32.8°F0.4°C 14.8°F-9.6°C 47% 1.0 mph N1.6 kmh N 1.0 mph1.6 kmh 30.43 in1030.5 mb 0.00 in0.0 mm 0.00 in0.0 mm 0.00 in0.0 mm
07:38 PM 32.9°F0.5°C 16.3°F-8.7°C 50% Calm Calm 1.0 mph1.6 kmh 30.43 in1030.5 mb 0.00 in0.0 mm 0.00 in0.0 mm 0.00 in0.0 mm
07:40 PM 32.8°F0.4°C 17.1°F-8.3°C 52% Calm Calm 1.0 mph1.6 kmh 30.43 in1030.5 mb 0.00 in0.0 mm 0.00 in0.0 mm 0.00 in0.0 mm
07:42 PM 32.7°F0.4°C 17.0°F-8.3°C 52% Calm Calm 1.0 mph1.6 kmh 30.43 in1030.5 mb 0.00 in0.0 mm 0.00 in0.0 mm 0.00 in0.0 mm
07:44 PM 32.6°F0.3°C 17.4°F-8.1°C 53% 1.0 mph N1.6 kmh N 2.0 mph3.2 kmh 30.43 in1030.5 mb 0.00 in0.0 mm 0.00 in0.0 mm 0.00 in0.0 mm
07:46 PM 32.5°F0.3°C 17.7°F-7.9°C 54% 1.0 mph N1.6 kmh N 2.0 mph3.2 kmh 30.43 in1030.5 mb 0.00 in0.0 mm 0.00 in0.0 mm 0.00 in0.0 mm
07:48 PM 32.3°F0.2°C 17.1°F-8.3°C 53% 2.0 mph N3.2 kmh N 2.0 mph3.2 kmh 30.43 in1030.5 mb 0.00 in0.0 mm 0.00 in0.0 mm 0.00 in0.0 mm
07:50 PM 32.2°F0.1°C 15.7°F-9.1°C 50% 1.0 mph N1.6 kmh N 2.0 mph3.2 kmh 30.43 in1030.5 mb 0.00 in0.0 mm 0.00 in0.0 mm 0.00 in0.0 mm
07:52 PM 32.3°F0.2°C 16.2°F-8.8°C 51% 1.0 mph N1.6 kmh N 2.0 mph3.2 kmh 30.43 in1030.5 mb 0.00 in0.0 mm 0.00 in0.0 mm 0.00 in0.0 mm
07:54 PM 32.2°F0.1°C 16.1°F-8.8°C 51% 1.0 mph N1.6 kmh N 2.0 mph3.2 kmh 30.43 in1030.5 mb 0.00 in0.0 mm 0.00 in0.0 mm 0.00 in0.0 mm
07:56 PM 32.4°F0.2°C 16.3°F-8.7°C 51% 2.0 mph N3.2 kmh N 2.0 mph3.2 kmh 30.43 in1030.5 mb 0.00 in0.0 mm 0.00 in0.0 mm 0.00 in0.0 mm
07:58 PM 32.3°F0.2°C 16.7°F-8.5°C 52% 2.0 mph N3.2 kmh N 2.0 mph3.2 kmh 30.43 in1030.5 mb 0.00 in0.0 mm 0.00 in0.0 mm 0.00 in0.0 mm
08:00 PM 32.4°F0.2°C 17.2°F-8.2°C 53% 1.0 mph N1.6 kmh N 2.0 mph3.2 kmh 30.43 in1030.5 mb 0.00 in0.0 mm 0.00 in0.0 mm 0.00 in0.0 mm
08:02 PM 32.3°F0.2°C 16.7°F-8.5°C 52% 2.0 mph N3.2 kmh N 2.0 mph3.2 kmh 30.42 in1030.1 mb 0.00 in0.0 mm 0.00 in0.0 mm 0.00 in0.0 mm
08:04 PM 32.3°F0.2°C 16.7°F-8.5°C 52% 3.0 mph N4.8 kmh N 3.0 mph4.8 kmh 30.42 in1030.1 mb 0.00 in0.0 mm 0.00 in0.0 mm 0.00 in0.0 mm
08:06 PM 32.2°F0.1°C 15.7°F-9.1°C 50% 1.0 mph N1.6 kmh N 3.0 mph4.8 kmh 30.42 in1030.1 mb 0.00 in0.0 mm 0.00 in0.0 mm 0.00 in0.0 mm
08:08 PM 32.3°F0.2°C 15.8°F-9.0°C 50% 2.0 mph N3.2 kmh N 3.0 mph4.8 kmh 30.42 in1030.1 mb 0.00 in0.0 mm 0.00 in0.0 mm 0.00 in0.0 mm
08:10 PM 32.3°F0.2°C 15.8°F-9.0°C 50% 2.0 mph N3.2 kmh N 3.0 mph4.8 kmh 30.42 in1030.1 mb 0.00 in0.0 mm 0.00 in0.0 mm 0.00 in0.0 mm
08:12 PM 32.3°F0.2°C 15.8°F-9.0°C 50% 2.0 mph N3.2 kmh N 3.0 mph4.8 kmh 30.42 in1030.1 mb 0.00 in0.0 mm 0.00 in0.0 mm 0.00 in0.0 mm
08:14 PM 32.3°F0.2°C 16.2°F-8.8°C 51% 2.0 mph N3.2 kmh N 3.0 mph4.8 kmh 30.42 in1030.1 mb 0.00 in0.0 mm 0.00 in0.0 mm 0.00 in0.0 mm
08:16 PM 32.2°F0.1°C 16.1°F-8.8°C 51% 2.0 mph N3.2 kmh N 3.0 mph4.8 kmh 30.42 in1030.1 mb 0.00 in0.0 mm 0.00 in0.0 mm 0.00 in0.0 mm
08:18 PM 32.2°F0.1°C 16.6°F-8.6°C 52% 1.0 mph N1.6 kmh N 3.0 mph4.8 kmh 30.42 in1030.1 mb 0.00 in0.0 mm 0.00 in0.0 mm 0.00 in0.0 mm
08:20 PM 32.1°F0.1°C 16.5°F-8.6°C 52% 1.0 mph N1.6 kmh N 3.0 mph4.8 kmh 30.42 in1030.1 mb 0.00 in0.0 mm 0.00 in0.0 mm 0.00 in0.0 mm
08:22 PM 32.1°F0.1°C 16.5°F-8.6°C 52% 1.0 mph N1.6 kmh N 3.0 mph4.8 kmh 30.42 in1030.1 mb 0.00 in0.0 mm 0.00 in0.0 mm 0.00 in0.0 mm
08:24 PM 32.1°F0.1°C 16.9°F-8.4°C 53% 1.0 mph N1.6 kmh N 3.0 mph4.8 kmh 30.42 in1030.1 mb 0.00 in0.0 mm 0.00 in0.0 mm 0.00 in0.0 mm
08:26 PM 32.0°F0.0°C 17.3°F-8.2°C 54% 2.0 mph N3.2 kmh N 3.0 mph4.8 kmh 30.42 in1030.1 mb 0.00 in0.0 mm 0.00 in0.0 mm 0.00 in0.0 mm
08:28 PM 31.9°F-0.1°C 17.2°F-8.2°C 54% 2.0 mph N3.2 kmh N 3.0 mph4.8 kmh 30.41 in1029.8 mb 0.00 in0.0 mm 0.00 in0.0 mm 0.00 in0.0 mm
08:30 PM 31.9°F-0.1°C 17.2°F-8.2°C 54% 1.0 mph N1.6 kmh N 3.0 mph4.8 kmh 30.41 in1029.8 mb 0.00 in0.0 mm 0.00 in0.0 mm 0.00 in0.0 mm
08:32 PM 31.8°F-0.1°C 17.5°F-8.1°C 55% 1.0 mph N1.6 kmh N 3.0 mph4.8 kmh 30.41 in1029.8 mb 0.00 in0.0 mm 0.00 in0.0 mm 0.00 in0.0 mm
08:34 PM 31.8°F-0.1°C 17.1°F-8.3°C 54% 1.0 mph N1.6 kmh N 2.0 mph3.2 kmh 30.41 in1029.8 mb 0.00 in0.0 mm 0.00 in0.0 mm 0.00 in0.0 mm
08:36 PM 31.7°F-0.2°C 17.0°F-8.3°C 54% 2.0 mph N3.2 kmh N 2.0 mph3.2 kmh 30.41 in1029.8 mb 0.00 in0.0 mm 0.00 in0.0 mm 0.00 in0.0 mm
08:38 PM 31.8°F-0.1°C 17.1°F-8.3°C 54% 1.0 mph N1.6 kmh N 2.0 mph3.2 kmh 30.41 in1029.8 mb 0.00 in0.0 mm 0.00 in0.0 mm 0.00 in0.0 mm
08:40 PM 31.8°F-0.1°C 17.1°F-8.3°C 54% 2.0 mph N3.2 kmh N 2.0 mph3.2 kmh 30.41 in1029.8 mb 0.00 in0.0 mm 0.00 in0.0 mm 0.00 in0.0 mm
08:42 PM 31.8°F-0.1°C 17.1°F-8.3°C 54% 3.0 mph N4.8 kmh N 3.0 mph4.8 kmh 30.41 in1029.8 mb 0.00 in0.0 mm 0.00 in0.0 mm 0.00 in0.0 mm
08:44 PM 31.7°F-0.2°C 17.0°F-8.3°C 54% 1.0 mph N1.6 kmh N 3.0 mph4.8 kmh 30.41 in1029.8 mb 0.00 in0.0 mm 0.00 in0.0 mm 0.00 in0.0 mm
08:46 PM 31.7°F-0.2°C 17.0°F-8.3°C 54% 2.0 mph N3.2 kmh N 3.0 mph4.8 kmh 30.41 in1029.8 mb 0.00 in0.0 mm 0.00 in0.0 mm 0.00 in0.0 mm
08:48 PM 31.6°F-0.2°C 16.9°F-8.4°C 54% 1.0 mph N1.6 kmh N 3.0 mph4.8 kmh 30.41 in1029.8 mb 0.00 in0.0 mm 0.00 in0.0 mm 0.00 in0.0 mm
08:50 PM 31.6°F-0.2°C 16.9°F-8.4°C 54% 2.0 mph N3.2 kmh N 3.0 mph4.8 kmh 30.41 in1029.8 mb 0.00 in0.0 mm 0.00 in0.0 mm 0.00 in0.0 mm
08:52 PM 31.5°F-0.3°C 16.4°F-8.7°C 53% 1.0 mph N1.6 kmh N 3.0 mph4.8 kmh 30.41 in1029.8 mb 0.00 in0.0 mm 0.00 in0.0 mm 0.00 in0.0 mm
08:54 PM 31.4°F-0.3°C 16.7°F-8.5°C 54% 2.0 mph N3.2 kmh N 3.0 mph4.8 kmh 30.41 in1029.8 mb 0.00 in0.0 mm 0.00 in0.0 mm 0.00 in0.0 mm
08:56 PM 31.4°F-0.3°C 16.7°F-8.5°C 54% 1.0 mph N1.6 kmh N 3.0 mph4.8 kmh 30.41 in1029.8 mb 0.00 in0.0 mm 0.00 in0.0 mm 0.00 in0.0 mm
08:58 PM 31.4°F-0.3°C 16.7°F-8.5°C 54% 1.0 mph N1.6 kmh N 3.0 mph4.8 kmh 30.41 in1029.8 mb 0.00 in0.0 mm 0.00 in0.0 mm 0.00 in0.0 mm
09:00 PM 31.4°F-0.3°C 17.1°F-8.3°C 55% 1.0 mph N1.6 kmh N 3.0 mph4.8 kmh 30.41 in1029.8 mb 0.00 in0.0 mm 0.00 in0.0 mm 0.00 in0.0 mm
09:02 PM 31.3°F-0.4°C 17.0°F-8.3°C 55% 1.0 mph N1.6 kmh N 3.0 mph4.8 kmh 30.41 in1029.8 mb 0.00 in0.0 mm 0.00 in0.0 mm 0.00 in0.0 mm
09:04 PM 31.2°F-0.4°C 16.9°F-8.4°C 55% 1.0 mph N1.6 kmh N 2.0 mph3.2 kmh 30.41 in1029.8 mb 0.00 in0.0 mm 0.00 in0.0 mm 0.00 in0.0 mm
09:06 PM 31.3°F-0.4°C 17.0°F-8.3°C 55% 1.0 mph N1.6 kmh N 2.0 mph3.2 kmh 30.41 in1029.8 mb 0.00 in0.0 mm 0.00 in0.0 mm 0.00 in0.0 mm
09:08 PM 31.2°F-0.4°C 16.9°F-8.4°C 55% 1.0 mph N1.6 kmh N 2.0 mph3.2 kmh 30.41 in1029.8 mb 0.00 in0.0 mm 0.00 in0.0 mm 0.00 in0.0 mm
09:10 PM 31.2°F-0.4°C 16.5°F-8.6°C 54% 1.0 mph N1.6 kmh N 2.0 mph3.2 kmh 30.41 in1029.8 mb 0.00 in0.0 mm 0.00 in0.0 mm 0.00 in0.0 mm
09:12 PM 31.2°F-0.4°C 16.1°F-8.8°C 53% 2.0 mph N3.2 kmh N 2.0 mph3.2 kmh 30.41 in1029.8 mb 0.00 in0.0 mm 0.00 in0.0 mm 0.00 in0.0 mm
09:14 PM 31.4°F-0.3°C 15.8°F-9.0°C 52% 1.0 mph N1.6 kmh N 2.0 mph3.2 kmh 30.41 in1029.8 mb 0.00 in0.0 mm 0.00 in0.0 mm 0.00 in0.0 mm
09:16 PM 31.5°F-0.3°C 15.5°F-9.2°C 51% 1.0 mph N1.6 kmh N 2.0 mph3.2 kmh 30.42 in1030.1 mb 0.00 in0.0 mm 0.00 in0.0 mm 0.00 in0.0 mm
09:18 PM 31.5°F-0.3°C 15.5°F-9.2°C 51% 2.0 mph N3.2 kmh N 2.0 mph3.2 kmh 30.42 in1030.1 mb 0.00 in0.0 mm 0.00 in0.0 mm 0.00 in0.0 mm
09:20 PM 31.6°F-0.2°C 15.6°F-9.1°C 51% 1.0 mph N1.6 kmh N 2.0 mph3.2 kmh 30.42 in1030.1 mb 0.00 in0.0 mm 0.00 in0.0 mm 0.00 in0.0 mm
09:22 PM 31.7°F-0.2°C 15.2°F-9.3°C 50% 1.0 mph N1.6 kmh N 3.0 mph4.8 kmh 30.41 in1029.8 mb 0.00 in0.0 mm 0.00 in0.0 mm 0.00 in0.0 mm
09:24 PM 31.8°F-0.1°C 14.8°F-9.6°C 49% 1.0 mph N1.6 kmh N 3.0 mph4.8 kmh 30.41 in1029.8 mb 0.00 in0.0 mm 0.00 in0.0 mm 0.00 in0.0 mm
09:26 PM 31.8°F-0.1°C 14.8°F-9.6°C 49% Calm Calm 3.0 mph4.8 kmh 30.41 in1029.8 mb 0.00 in0.0 mm 0.00 in0.0 mm 0.00 in0.0 mm
09:28 PM 31.9°F-0.1°C 15.4°F-9.2°C 50% Calm Calm 3.0 mph4.8 kmh 30.42 in1030.1 mb 0.00 in0.0 mm 0.00 in0.0 mm 0.00 in0.0 mm
09:30 PM 31.8°F-0.1°C 14.8°F-9.6°C 49% Calm Calm 3.0 mph4.8 kmh 30.42 in1030.1 mb 0.00 in0.0 mm 0.00 in0.0 mm 0.00 in0.0 mm
09:32 PM 31.8°F-0.1°C 14.8°F-9.6°C 49% 1.0 mph N1.6 kmh N 3.0 mph4.8 kmh 30.42 in1030.1 mb 0.00 in0.0 mm 0.00 in0.0 mm 0.00 in0.0 mm
09:34 PM 31.9°F-0.1°C 14.9°F-9.5°C 49% 1.0 mph N1.6 kmh N 2.0 mph3.2 kmh 30.42 in1030.1 mb 0.00 in0.0 mm 0.00 in0.0 mm 0.00 in0.0 mm
09:36 PM 31.9°F-0.1°C 14.9°F-9.5°C 49% 2.0 mph N3.2 kmh N 2.0 mph3.2 kmh 30.42 in1030.1 mb 0.00 in0.0 mm 0.00 in0.0 mm 0.00 in0.0 mm
09:38 PM 31.9°F-0.1°C 14.5°F-9.7°C 48% 2.0 mph N3.2 kmh N 2.0 mph3.2 kmh 30.42 in1030.1 mb 0.00 in0.0 mm 0.00 in0.0 mm 0.00 in0.0 mm
09:40 PM 32.0°F0.0°C 15.0°F-9.4°C 49% 1.0 mph N1.6 kmh N 2.0 mph3.2 kmh 30.42 in1030.1 mb 0.00 in0.0 mm 0.00 in0.0 mm 0.00 in0.0 mm
09:42 PM 32.0°F0.0°C 15.0°F-9.4°C 49% 2.0 mph N3.2 kmh N 2.0 mph3.2 kmh 30.42 in1030.1 mb 0.00 in0.0 mm 0.00 in0.0 mm 0.00 in0.0 mm
09:44 PM 32.0°F0.0°C 14.6°F-9.7°C 48% Calm Calm 2.0 mph3.2 kmh 30.41 in1029.8 mb 0.00 in0.0 mm 0.00 in0.0 mm 0.00 in0.0 mm
09:46 PM 31.9°F-0.1°C 14.9°F-9.5°C 49% 1.0 mph N1.6 kmh N 2.0 mph3.2 kmh 30.41 in1029.8 mb 0.00 in0.0 mm 0.00 in0.0 mm 0.00 in0.0 mm
09:48 PM 31.9°F-0.1°C 14.9°F-9.5°C 49% Calm Calm 2.0 mph3.2 kmh 30.41 in1029.8 mb 0.00 in0.0 mm 0.00 in0.0 mm 0.00 in0.0 mm
09:50 PM 31.9°F-0.1°C 14.5°F-9.7°C 48% 1.0 mph N1.6 kmh N 2.0 mph3.2 kmh 30.41 in1029.8 mb 0.00 in0.0 mm 0.00 in0.0 mm 0.00 in0.0 mm
09:52 PM 31.9°F-0.1°C 14.5°F-9.7°C 48% 2.0 mph N3.2 kmh N 2.0 mph3.2 kmh 30.41 in1029.8 mb 0.00 in0.0 mm 0.00 in0.0 mm 0.00 in0.0 mm
09:54 PM 31.9°F-0.1°C 14.5°F-9.7°C 48% 1.0 mph N1.6 kmh N 2.0 mph3.2 kmh 30.41 in1029.8 mb 0.00 in0.0 mm 0.00 in0.0 mm 0.00 in0.0 mm
09:56 PM 31.9°F-0.1°C 14.5°F-9.7°C 48% 1.0 mph N1.6 kmh N 2.0 mph3.2 kmh 30.41 in1029.8 mb 0.00 in0.0 mm 0.00 in0.0 mm 0.00 in0.0 mm
09:58 PM 31.9°F-0.1°C 14.5°F-9.7°C 48% Calm Calm 2.0 mph3.2 kmh 30.41 in1029.8 mb 0.00 in0.0 mm 0.00 in0.0 mm 0.00 in0.0 mm
10:00 PM 31.9°F-0.1°C 14.9°F-9.5°C 49% 2.0 mph N3.2 kmh N 2.0 mph3.2 kmh 30.41 in1029.8 mb 0.00 in0.0 mm 0.00 in0.0 mm 0.00 in0.0 mm
10:02 PM 31.8°F-0.1°C 14.8°F-9.6°C 49% 2.0 mph N3.2 kmh N 2.0 mph3.2 kmh 30.41 in1029.8 mb 0.00 in0.0 mm 0.00 in0.0 mm 0.00 in0.0 mm
10:04 PM 31.8°F-0.1°C 14.4°F-9.8°C 48% 1.0 mph N1.6 kmh N 2.0 mph3.2 kmh 30.40 in1029.5 mb 0.00 in0.0 mm 0.00 in0.0 mm 0.00 in0.0 mm
10:06 PM 31.8°F-0.1°C 14.4°F-9.8°C 48% 1.0 mph N1.6 kmh N 2.0 mph3.2 kmh 30.40 in1029.5 mb 0.00 in0.0 mm 0.00 in0.0 mm 0.00 in0.0 mm
10:08 PM 31.8°F-0.1°C 14.4°F-9.8°C 48% 1.0 mph N1.6 kmh N 2.0 mph3.2 kmh 30.41 in1029.8 mb 0.00 in0.0 mm 0.00 in0.0 mm 0.00 in0.0 mm
10:10 PM 31.8°F-0.1°C 14.4°F-9.8°C 48% 1.0 mph N1.6 kmh N 2.0 mph3.2 kmh 30.41 in1029.8 mb 0.00 in0.0 mm 0.00 in0.0 mm 0.00 in0.0 mm
10:12 PM 31.9°F-0.1°C 14.5°F-9.7°C 48% Calm Calm 2.0 mph3.2 kmh 30.41 in1029.8 mb 0.00 in0.0 mm 0.00 in0.0 mm 0.00 in0.0 mm
10:14 PM 31.9°F-0.1°C 14.5°F-9.7°C 48% Calm Calm 2.0 mph3.2 kmh 30.41 in1029.8 mb 0.00 in0.0 mm 0.00 in0.0 mm 0.00 in0.0 mm
10:16 PM 31.8°F-0.1°C 14.4°F-9.8°C 48% 3.0 mph N4.8 kmh N 3.0 mph4.8 kmh 30.40 in1029.5 mb 0.00 in0.0 mm 0.00 in0.0 mm 0.00 in0.0 mm
10:18 PM 31.9°F-0.1°C 14.5°F-9.7°C 48% 2.0 mph N3.2 kmh N 3.0 mph4.8 kmh 30.40 in1029.5 mb 0.00 in0.0 mm 0.00 in0.0 mm 0.00 in0.0 mm
10:20 PM 31.9°F-0.1°C 14.5°F-9.7°C 48% 2.0 mph N3.2 kmh N 3.0 mph4.8 kmh 30.40 in1029.5 mb 0.00 in0.0 mm 0.00 in0.0 mm 0.00 in0.0 mm
10:22 PM 31.9°F-0.1°C 13.0°F-10.6°C 45% 3.0 mph N4.8 kmh N 3.0 mph4.8 kmh 30.40 in1029.5 mb 0.00 in0.0 mm 0.00 in0.0 mm 0.00 in0.0 mm
10:24 PM 32.1°F0.1°C 12.7°F-10.7°C 44% 3.0 mph NNE4.8 kmh NNE 4.0 mph6.4 kmh 30.40 in1029.5 mb 0.00 in0.0 mm 0.00 in0.0 mm 0.00 in0.0 mm
10:26 PM 32.4°F0.2°C 12.9°F-10.6°C 44% 2.0 mph NNE3.2 kmh NNE 4.0 mph6.4 kmh 30.40 in1029.5 mb 0.00 in0.0 mm 0.00 in0.0 mm 0.00 in0.0 mm
10:28 PM 32.4°F0.2°C 13.4°F-10.3°C 45% 2.0 mph NNE3.2 kmh NNE 4.0 mph6.4 kmh 30.40 in1029.5 mb 0.00 in0.0 mm 0.00 in0.0 mm 0.00 in0.0 mm
10:30 PM 32.4°F0.2°C 12.9°F-10.6°C 44% 2.0 mph NNE3.2 kmh NNE 4.0 mph6.4 kmh 30.40 in1029.5 mb 0.00 in0.0 mm 0.00 in0.0 mm 0.00 in0.0 mm
10:32 PM 32.4°F0.2°C 12.9°F-10.6°C 44% 3.0 mph NNE4.8 kmh NNE 4.0 mph6.4 kmh 30.40 in1029.5 mb 0.00 in0.0 mm 0.00 in0.0 mm 0.00 in0.0 mm
10:34 PM 32.3°F0.2°C 12.8°F-10.7°C 44% 2.0 mph NNE3.2 kmh NNE 3.0 mph4.8 kmh 30.40 in1029.5 mb 0.00 in0.0 mm 0.00 in0.0 mm 0.00 in0.0 mm
10:36 PM 32.2°F0.1°C 12.8°F-10.7°C 44% 1.0 mph NNE1.6 kmh NNE 3.0 mph4.8 kmh 30.40 in1029.5 mb 0.00 in0.0 mm 0.00 in0.0 mm 0.00 in0.0 mm
10:38 PM 32.1°F0.1°C 12.1°F-11.1°C 43% 1.0 mph NNE1.6 kmh NNE 3.0 mph4.8 kmh 30.40 in1029.5 mb 0.00 in0.0 mm 0.00 in0.0 mm 0.00 in0.0 mm
10:40 PM 32.1°F0.1°C 12.1°F-11.1°C 43% 3.0 mph NNE4.8 kmh NNE 3.0 mph4.8 kmh 30.40 in1029.5 mb 0.00 in0.0 mm 0.00 in0.0 mm 0.00 in0.0 mm
10:42 PM 32.1°F0.1°C 12.1°F-11.1°C 43% 3.0 mph NNE4.8 kmh NNE 4.0 mph6.4 kmh 30.39 in1029.1 mb 0.00 in0.0 mm 0.00 in0.0 mm 0.00 in0.0 mm
10:44 PM 32.2°F0.1°C 12.2°F-11.0°C 43% 1.0 mph NNE1.6 kmh NNE 4.0 mph6.4 kmh 30.39 in1029.1 mb 0.00 in0.0 mm 0.00 in0.0 mm 0.00 in0.0 mm
10:46 PM 32.1°F0.1°C 12.7°F-10.7°C 44% 3.0 mph NNE4.8 kmh NNE 4.0 mph6.4 kmh 30.39 in1029.1 mb 0.00 in0.0 mm 0.00 in0.0 mm 0.00 in0.0 mm
10:48 PM 32.1°F0.1°C 12.1°F-11.1°C 43% 3.0 mph NNE4.8 kmh NNE 4.0 mph6.4 kmh 30.39 in1029.1 mb 0.00 in0.0 mm 0.00 in0.0 mm 0.00 in0.0 mm
10:50 PM 32.1°F0.1°C 12.7°F-10.7°C 44% 1.0 mph NNE1.6 kmh NNE 4.0 mph6.4 kmh 30.39 in1029.1 mb 0.00 in0.0 mm 0.00 in0.0 mm 0.00 in0.0 mm
10:52 PM 32.1°F0.1°C 13.2°F-10.4°C 45% 2.0 mph NNE3.2 kmh NNE 4.0 mph6.4 kmh 30.39 in1029.1 mb 0.00 in0.0 mm 0.00 in0.0 mm 0.00 in0.0 mm
10:54 PM 32.0°F0.0°C 13.1°F-10.5°C 45% Calm Calm 4.0 mph6.4 kmh 30.38 in1028.8 mb 0.00 in0.0 mm 0.00 in0.0 mm 0.00 in0.0 mm
10:56 PM 31.9°F-0.1°C 12.5°F-10.8°C 44% 2.0 mph NNE3.2 kmh NNE 4.0 mph6.4 kmh 30.39 in1029.1 mb 0.00 in0.0 mm 0.00 in0.0 mm 0.00 in0.0 mm
10:58 PM 31.8°F-0.1°C 12.4°F-10.9°C 44% 1.0 mph NNE1.6 kmh NNE 4.0 mph6.4 kmh 30.38 in1028.8 mb 0.00 in0.0 mm 0.00 in0.0 mm 0.00 in0.0 mm
11:00 PM 31.8°F-0.1°C 12.4°F-10.9°C 44% 3.0 mph NNE4.8 kmh NNE 4.0 mph6.4 kmh 30.39 in1029.1 mb 0.00 in0.0 mm 0.00 in0.0 mm 0.00 in0.0 mm
11:02 PM 31.8°F-0.1°C 12.4°F-10.9°C 44% Calm Calm -- 30.39 in1029.1 mb 0.00 in0.0 mm 0.00 in0.0 mm 0.00 in0.0 mm
11:04 PM 31.7°F-0.2°C 12.8°F-10.7°C 45% 1.0 mph NNE1.6 kmh NNE 2.0 mph3.2 kmh 30.39 in1029.1 mb 0.00 in0.0 mm 0.00 in0.0 mm 0.00 in0.0 mm
11:06 PM 31.6°F-0.2°C 12.7°F-10.7°C 45% 1.0 mph NNE1.6 kmh NNE 2.0 mph3.2 kmh 30.38 in1028.8 mb 0.00 in0.0 mm 0.00 in0.0 mm 0.00 in0.0 mm
11:08 PM 31.4°F-0.3°C 13.5°F-10.3°C 47% 1.0 mph NNE1.6 kmh NNE 2.0 mph3.2 kmh 30.38 in1028.8 mb 0.00 in0.0 mm 0.00 in0.0 mm 0.00 in0.0 mm
11:10 PM 31.2°F-0.4°C 12.4°F-10.9°C 45% 1.0 mph NNE1.6 kmh NNE 2.0 mph3.2 kmh 30.38 in1028.8 mb 0.00 in0.0 mm 0.00 in0.0 mm 0.00 in0.0 mm
11:12 PM 31.2°F-0.4°C 11.8°F-11.2°C 44% 1.0 mph NNE1.6 kmh NNE 2.0 mph3.2 kmh 30.38 in1028.8 mb 0.00 in0.0 mm 0.00 in0.0 mm 0.00 in0.0 mm
11:14 PM 31.3°F-0.4°C 11.9°F-11.2°C 44% 1.0 mph NNE1.6 kmh NNE 2.0 mph3.2 kmh 30.38 in1028.8 mb 0.00 in0.0 mm 0.00 in0.0 mm 0.00 in0.0 mm
11:16 PM 31.3°F-0.4°C 12.4°F-10.9°C 45% Calm Calm 2.0 mph3.2 kmh 30.39 in1029.1 mb 0.00 in0.0 mm 0.00 in0.0 mm 0.00 in0.0 mm
11:18 PM 31.3°F-0.4°C 12.4°F-10.9°C 45% 2.0 mph NNE3.2 kmh NNE 2.0 mph3.2 kmh 30.38 in1028.8 mb 0.00 in0.0 mm 0.00 in0.0 mm 0.00 in0.0 mm
11:20 PM 31.3°F-0.4°C 11.9°F-11.2°C 44% 2.0 mph NNE3.2 kmh NNE 2.0 mph3.2 kmh 30.38 in1028.8 mb 0.00 in0.0 mm 0.00 in0.0 mm 0.00 in0.0 mm
11:22 PM 31.4°F-0.3°C 11.5°F-11.4°C 43% 2.0 mph NNE3.2 kmh NNE 2.0 mph3.2 kmh 30.37 in1028.4 mb 0.00 in0.0 mm 0.00 in0.0 mm 0.00 in0.0 mm
11:24 PM 31.5°F-0.3°C 11.6°F-11.3°C 43% 1.0 mph NNE1.6 kmh NNE 2.0 mph3.2 kmh 30.38 in1028.8 mb 0.00 in0.0 mm 0.00 in0.0 mm 0.00 in0.0 mm
11:26 PM 31.6°F-0.2°C 11.2°F-11.6°C 42% 1.0 mph NNE1.6 kmh NNE 2.0 mph3.2 kmh 30.37 in1028.4 mb 0.00 in0.0 mm 0.00 in0.0 mm 0.00 in0.0 mm
11:28 PM 31.7°F-0.2°C 11.3°F-11.5°C 42% Calm Calm 2.0 mph3.2 kmh 30.37 in1028.4 mb 0.00 in0.0 mm 0.00 in0.0 mm 0.00 in0.0 mm
11:30 PM 31.7°F-0.2°C 11.3°F-11.5°C 42% 1.0 mph NNE1.6 kmh NNE 2.0 mph3.2 kmh 30.37 in1028.4 mb 0.00 in0.0 mm 0.00 in0.0 mm 0.00 in0.0 mm
11:32 PM 31.7°F-0.2°C 11.3°F-11.5°C 42% 1.0 mph NNE1.6 kmh NNE 2.0 mph3.2 kmh 30.37 in1028.4 mb 0.00 in0.0 mm 0.00 in0.0 mm 0.00 in0.0 mm
11:34 PM 31.7°F-0.2°C 11.3°F-11.5°C 42% 2.0 mph NNE3.2 kmh NNE 2.0 mph3.2 kmh 30.37 in1028.4 mb 0.00 in0.0 mm 0.00 in0.0 mm 0.00 in0.0 mm
11:36 PM 31.6°F-0.2°C 11.7°F-11.3°C 43% Calm Calm 2.0 mph3.2 kmh 30.37 in1028.4 mb 0.00 in0.0 mm 0.00 in0.0 mm 0.00 in0.0 mm
11:38 PM 31.5°F-0.3°C 12.6°F-10.8°C 45% 2.0 mph NNE3.2 kmh NNE 2.0 mph3.2 kmh 30.37 in1028.4 mb 0.00 in0.0 mm 0.00 in0.0 mm 0.00 in0.0 mm
11:40 PM 31.3°F-0.4°C 12.9°F-10.6°C 46% Calm Calm 2.0 mph3.2 kmh 30.36 in1028.1 mb 0.00 in0.0 mm 0.00 in0.0 mm 0.00 in0.0 mm
11:42 PM 31.0°F-0.6°C 13.6°F-10.2°C 48% 2.0 mph NNE3.2 kmh NNE 2.0 mph3.2 kmh 30.37 in1028.4 mb 0.00 in0.0 mm 0.00 in0.0 mm 0.00 in0.0 mm
11:44 PM 30.7°F-0.7°C 13.8°F-10.1°C 49% 1.0 mph NNE1.6 kmh NNE 3.0 mph4.8 kmh 30.36 in1028.1 mb 0.00 in0.0 mm 0.00 in0.0 mm 0.00 in0.0 mm
11:46 PM 30.4°F-0.9°C 14.0°F-10.0°C 50% 1.0 mph NNE1.6 kmh NNE 3.0 mph4.8 kmh 30.36 in1028.1 mb 0.00 in0.0 mm 0.00 in0.0 mm 0.00 in0.0 mm
11:48 PM 30.0°F-1.1°C 14.5°F-9.7°C 52% 1.0 mph NNE1.6 kmh NNE 3.0 mph4.8 kmh 30.36 in1028.1 mb 0.00 in0.0 mm 0.00 in0.0 mm 0.00 in0.0 mm
11:50 PM 29.5°F-1.4°C 15.8°F-9.0°C 56% 2.0 mph NNE3.2 kmh NNE 3.0 mph4.8 kmh 30.36 in1028.1 mb 0.00 in0.0 mm 0.00 in0.0 mm 0.00 in0.0 mm
11:52 PM 29.2°F-1.6°C 16.3°F-8.7°C 58% Calm Calm 3.0 mph4.8 kmh 30.36 in1028.1 mb 0.00 in0.0 mm 0.00 in0.0 mm 0.00 in0.0 mm
11:54 PM 28.9°F-1.7°C 16.0°F-8.9°C 58% Calm Calm 3.0 mph4.8 kmh 30.35 in1027.8 mb 0.00 in0.0 mm 0.00 in0.0 mm 0.00 in0.0 mm
11:56 PM 28.6°F-1.9°C 16.1°F-8.8°C 59% 1.0 mph NNE1.6 kmh NNE 3.0 mph4.8 kmh 30.35 in1027.8 mb 0.00 in0.0 mm 0.00 in0.0 mm 0.00 in0.0 mm
11:58 PM 28.4°F-2.0°C 16.3°F-8.7°C 60% 2.0 mph NNE3.2 kmh NNE 3.0 mph4.8 kmh 30.36 in1028.1 mb 0.00 in0.0 mm 0.00 in0.0 mm 0.00 in0.0 mm